<?xml version="1.0" encoding="UTF-8" standalone="no" ?>
<gpx xmlns="http://www.topografix.com/GPX/1/1" xmlns:xsi="http://www.w3.org/2001/XMLSchema-instance" xsi:schemaLocation="http://www.topografix.com/GPX/1/1 http://www.topografix.com/GPX/1/1/gpx.xsd" version="1.1" creator="VisuGPX - https://www.visugpx.com">
  <metadata>
    <name>CP trace 7-La maichoise 2019</name>
  </metadata>
  <trk>
    <name><![CDATA[CP trace 7-La maichoise 2019_1]]></name>
    <trkseg>
      <trkpt lat="47.24478" lon="6.78904">
        <ele>823.7</ele>
        <time>2019-08-20T20:18:16Z</time>
      </trkpt>
      <trkpt lat="47.24591" lon="6.79017">
        <ele>826</ele>
        <time>2019-08-20T20:18:36Z</time>
      </trkpt>
      <trkpt lat="47.24646" lon="6.79086">
        <ele>830</ele>
        <time>2019-08-20T20:18:55Z</time>
      </trkpt>
      <trkpt lat="47.24715" lon="6.79193">
        <ele>830.8</ele>
        <time>2019-08-20T20:19:05Z</time>
      </trkpt>
      <trkpt lat="47.24736" lon="6.79271">
        <ele>829.8</ele>
        <time>2019-08-20T20:19:46Z</time>
      </trkpt>
      <trkpt lat="47.24766" lon="6.79546">
        <ele>833.8</ele>
        <time>2019-08-20T20:20:00Z</time>
      </trkpt>
      <trkpt lat="47.24782" lon="6.79675">
        <ele>834.2</ele>
        <time>2019-08-20T20:20:05Z</time>
      </trkpt>
      <trkpt lat="47.24778" lon="6.79735">
        <ele>833.2</ele>
        <time>2019-08-20T20:20:22Z</time>
      </trkpt>
      <trkpt lat="47.24743" lon="6.79896">
        <ele>830.8</ele>
        <time>2019-08-20T20:20:29Z</time>
      </trkpt>
      <trkpt lat="47.24735" lon="6.79956">
        <ele>831.2</ele>
        <time>2019-08-20T20:20:46Z</time>
      </trkpt>
      <trkpt lat="47.24748" lon="6.80109">
        <ele>831</ele>
        <time>2019-08-20T20:20:50Z</time>
      </trkpt>
      <trkpt lat="47.24752" lon="6.80152">
        <ele>831</ele>
        <time>2019-08-20T20:20:56Z</time>
      </trkpt>
      <trkpt lat="47.24759" lon="6.80216">
        <ele>829.8</ele>
        <time>2019-08-20T20:20:59Z</time>
      </trkpt>
      <trkpt lat="47.24749" lon="6.8023">
        <ele>828.6</ele>
        <time>2019-08-20T20:21:03Z</time>
      </trkpt>
      <trkpt lat="47.24721" lon="6.80238">
        <ele>827.4</ele>
        <time>2019-08-20T20:21:07Z</time>
      </trkpt>
      <trkpt lat="47.2469" lon="6.80255">
        <ele>827</ele>
        <time>2019-08-20T20:21:11Z</time>
      </trkpt>
      <trkpt lat="47.24663" lon="6.80287">
        <ele>826</ele>
        <time>2019-08-20T20:21:15Z</time>
      </trkpt>
      <trkpt lat="47.24644" lon="6.8033">
        <ele>823.6</ele>
        <time>2019-08-20T20:21:20Z</time>
      </trkpt>
      <trkpt lat="47.24628" lon="6.80392">
        <ele>821.8</ele>
        <time>2019-08-20T20:21:25Z</time>
      </trkpt>
      <trkpt lat="47.24608" lon="6.80451">
        <ele>820</ele>
        <time>2019-08-20T20:21:31Z</time>
      </trkpt>
      <trkpt lat="47.24573" lon="6.80503">
        <ele>818.6</ele>
        <time>2019-08-20T20:21:39Z</time>
      </trkpt>
      <trkpt lat="47.24521" lon="6.80567">
        <ele>816.2</ele>
        <time>2019-08-20T20:21:45Z</time>
      </trkpt>
      <trkpt lat="47.24478" lon="6.80609">
        <ele>814.2</ele>
        <time>2019-08-20T20:21:49Z</time>
      </trkpt>
      <trkpt lat="47.24447" lon="6.80643">
        <ele>813</ele>
        <time>2019-08-20T20:21:52Z</time>
      </trkpt>
      <trkpt lat="47.24423" lon="6.80678">
        <ele>812.6</ele>
        <time>2019-08-20T20:21:56Z</time>
      </trkpt>
      <trkpt lat="47.24399" lon="6.80737">
        <ele>810.2</ele>
        <time>2019-08-20T20:22:36Z</time>
      </trkpt>
      <trkpt lat="47.24384" lon="6.80793">
        <ele>801.2</ele>
        <time>2019-08-20T20:22:41Z</time>
      </trkpt>
      <trkpt lat="47.24313" lon="6.80795">
        <ele>798.1</ele>
        <time>2019-08-20T20:23:03Z</time>
      </trkpt>
      <trkpt lat="47.24156" lon="6.80884">
        <ele>800.4</ele>
        <time>2019-08-20T20:23:13Z</time>
      </trkpt>
      <trkpt lat="47.24133" lon="6.8092">
        <ele>800.6</ele>
        <time>2019-08-20T20:23:33Z</time>
      </trkpt>
      <trkpt lat="47.24067" lon="6.81121">
        <ele>799</ele>
        <time>2019-08-20T20:23:52Z</time>
      </trkpt>
      <trkpt lat="47.24037" lon="6.81215">
        <ele>797.8</ele>
        <time>2019-08-20T20:24:06Z</time>
      </trkpt>
      <trkpt lat="47.24004" lon="6.81403">
        <ele>796.2</ele>
        <time>2019-08-20T20:24:58Z</time>
      </trkpt>
      <trkpt lat="47.23991" lon="6.81533">
        <ele>798.8</ele>
        <time>2019-08-20T20:25:14Z</time>
      </trkpt>
      <trkpt lat="47.2398" lon="6.81612">
        <ele>801.8</ele>
        <time>2019-08-20T20:25:39Z</time>
      </trkpt>
      <trkpt lat="47.23945" lon="6.81704">
        <ele>809.3</ele>
        <time>2019-08-20T20:25:54Z</time>
      </trkpt>
      <trkpt lat="47.23901" lon="6.81787">
        <ele>812.6</ele>
        <time>2019-08-20T20:27:04Z</time>
      </trkpt>
      <trkpt lat="47.23832" lon="6.81787">
        <ele>817.2</ele>
        <time>2019-08-20T20:27:43Z</time>
      </trkpt>
      <trkpt lat="47.23769" lon="6.81779">
        <ele>819</ele>
        <time>2019-08-20T20:28:18Z</time>
      </trkpt>
      <trkpt lat="47.23732" lon="6.81806">
        <ele>828.5</ele>
        <time>2019-08-20T20:29:13Z</time>
      </trkpt>
      <trkpt lat="47.23701" lon="6.819">
        <ele>824.2</ele>
        <time>2019-08-20T20:29:45Z</time>
      </trkpt>
      <trkpt lat="47.23658" lon="6.81997">
        <ele>835</ele>
        <time>2019-08-20T20:30:02Z</time>
      </trkpt>
      <trkpt lat="47.23603" lon="6.82078">
        <ele>834.6</ele>
        <time>2019-08-20T20:30:53Z</time>
      </trkpt>
      <trkpt lat="47.23571" lon="6.82125">
        <ele>836.4</ele>
        <time>2019-08-20T20:31:50Z</time>
      </trkpt>
      <trkpt lat="47.23513" lon="6.82223">
        <ele>838.9</ele>
        <time>2019-08-20T20:32:52Z</time>
      </trkpt>
      <trkpt lat="47.23495" lon="6.82303">
        <ele>842.3</ele>
        <time>2019-08-20T20:33:16Z</time>
      </trkpt>
      <trkpt lat="47.23495" lon="6.82378">
        <ele>839.8</ele>
        <time>2019-08-20T20:34:46Z</time>
      </trkpt>
      <trkpt lat="47.23506" lon="6.8251">
        <ele>840.8</ele>
        <time>2019-08-20T20:35:34Z</time>
      </trkpt>
      <trkpt lat="47.2351" lon="6.82623">
        <ele>837.4</ele>
        <time>2019-08-20T20:35:51Z</time>
      </trkpt>
      <trkpt lat="47.2349" lon="6.82699">
        <ele>845.2</ele>
        <time>2019-08-20T20:36:11Z</time>
      </trkpt>
      <trkpt lat="47.2346" lon="6.82764">
        <ele>844</ele>
        <time>2019-08-20T20:36:28Z</time>
      </trkpt>
      <trkpt lat="47.23418" lon="6.82806">
        <ele>844.2</ele>
        <time>2019-08-20T20:37:04Z</time>
      </trkpt>
      <trkpt lat="47.23291" lon="6.82903">
        <ele>844.4</ele>
        <time>2019-08-20T20:37:28Z</time>
      </trkpt>
      <trkpt lat="47.23237" lon="6.82939">
        <ele>846.6</ele>
        <time>2019-08-20T20:37:54Z</time>
      </trkpt>
      <trkpt lat="47.23173" lon="6.82983">
        <ele>848</ele>
        <time>2019-08-20T20:38:39Z</time>
      </trkpt>
      <trkpt lat="47.23145" lon="6.82999">
        <ele>855.1</ele>
        <time>2019-08-20T20:38:58Z</time>
      </trkpt>
      <trkpt lat="47.23032" lon="6.83018">
        <ele>849.6</ele>
        <time>2019-08-20T20:39:14Z</time>
      </trkpt>
      <trkpt lat="47.22969" lon="6.83006">
        <ele>851</ele>
        <time>2019-08-20T20:39:22Z</time>
      </trkpt>
      <trkpt lat="47.22912" lon="6.82981">
        <ele>857.3</ele>
        <time>2019-08-20T20:39:40Z</time>
      </trkpt>
      <trkpt lat="47.22868" lon="6.82931">
        <ele>857.5</ele>
        <time>2019-08-20T20:39:47Z</time>
      </trkpt>
      <trkpt lat="47.22837" lon="6.82892">
        <ele>856</ele>
        <time>2019-08-20T20:39:55Z</time>
      </trkpt>
      <trkpt lat="47.22732" lon="6.82753">
        <ele>860.4</ele>
        <time>2019-08-20T20:40:00Z</time>
      </trkpt>
      <trkpt lat="47.22644" lon="6.8268">
        <ele>870.3</ele>
        <time>2019-08-20T20:40:10Z</time>
      </trkpt>
      <trkpt lat="47.22603" lon="6.82672">
        <ele>864.4</ele>
        <time>2019-08-20T20:40:23Z</time>
      </trkpt>
      <trkpt lat="47.22536" lon="6.82659">
        <ele>867.6</ele>
        <time>2019-08-20T20:40:26Z</time>
      </trkpt>
      <trkpt lat="47.22479" lon="6.82665">
        <ele>869.4</ele>
        <time>2019-08-20T20:40:37Z</time>
      </trkpt>
      <trkpt lat="47.22406" lon="6.82593">
        <ele>869.8</ele>
        <time>2019-08-20T20:40:48Z</time>
      </trkpt>
      <trkpt lat="47.22372" lon="6.82567">
        <ele>872.4</ele>
        <time>2019-08-20T20:40:53Z</time>
      </trkpt>
      <trkpt lat="47.22311" lon="6.82499">
        <ele>874.2</ele>
        <time>2019-08-20T20:41:06Z</time>
      </trkpt>
      <trkpt lat="47.22285" lon="6.82437">
        <ele>883.8</ele>
        <time>2019-08-20T20:41:09Z</time>
      </trkpt>
      <trkpt lat="47.22233" lon="6.82342">
        <ele>883.8</ele>
        <time>2019-08-20T20:41:19Z</time>
      </trkpt>
      <trkpt lat="47.22179" lon="6.82296">
        <ele>883</ele>
        <time>2019-08-20T20:41:39Z</time>
      </trkpt>
      <trkpt lat="47.22112" lon="6.82282">
        <ele>882</ele>
        <time>2019-08-20T20:41:55Z</time>
      </trkpt>
      <trkpt lat="47.22023" lon="6.82259">
        <ele>881.2</ele>
        <time>2019-08-20T20:42:00Z</time>
      </trkpt>
      <trkpt lat="47.21958" lon="6.82259">
        <ele>884.3</ele>
        <time>2019-08-20T20:42:14Z</time>
      </trkpt>
      <trkpt lat="47.21885" lon="6.82293">
        <ele>880</ele>
        <time>2019-08-20T20:42:24Z</time>
      </trkpt>
      <trkpt lat="47.21812" lon="6.82217">
        <ele>879.8</ele>
        <time>2019-08-20T20:42:34Z</time>
      </trkpt>
      <trkpt lat="47.21767" lon="6.8219">
        <ele>877</ele>
        <time>2019-08-20T20:42:42Z</time>
      </trkpt>
      <trkpt lat="47.2172" lon="6.82179">
        <ele>875.2</ele>
        <time>2019-08-20T20:43:05Z</time>
      </trkpt>
      <trkpt lat="47.21667" lon="6.82166">
        <ele>872.4</ele>
        <time>2019-08-20T20:43:11Z</time>
      </trkpt>
      <trkpt lat="47.21626" lon="6.8209">
        <ele>869.4</ele>
        <time>2019-08-20T20:43:23Z</time>
      </trkpt>
      <trkpt lat="47.21593" lon="6.82004">
        <ele>866.3</ele>
        <time>2019-08-20T20:43:32Z</time>
      </trkpt>
      <trkpt lat="47.21566" lon="6.82027">
        <ele>862.6</ele>
        <time>2019-08-20T20:43:39Z</time>
      </trkpt>
      <trkpt lat="47.21547" lon="6.82034">
        <ele>865.6</ele>
        <time>2019-08-20T20:43:54Z</time>
      </trkpt>
      <trkpt lat="47.21537" lon="6.82018">
        <ele>862</ele>
        <time>2019-08-20T20:44:01Z</time>
      </trkpt>
      <trkpt lat="47.21532" lon="6.81993">
        <ele>861.8</ele>
        <time>2019-08-20T20:44:23Z</time>
      </trkpt>
      <trkpt lat="47.21516" lon="6.81882">
        <ele>861.8</ele>
        <time>2019-08-20T20:44:28Z</time>
      </trkpt>
      <trkpt lat="47.21483" lon="6.81886">
        <ele>861.8</ele>
        <time>2019-08-20T20:44:34Z</time>
      </trkpt>
      <trkpt lat="47.21425" lon="6.8192">
        <ele>862</ele>
        <time>2019-08-20T20:44:39Z</time>
      </trkpt>
      <trkpt lat="47.21418" lon="6.81908">
        <ele>862</ele>
        <time>2019-08-20T20:44:45Z</time>
      </trkpt>
      <trkpt lat="47.21396" lon="6.8184">
        <ele>862.2</ele>
        <time>2019-08-20T20:44:52Z</time>
      </trkpt>
      <trkpt lat="47.21387" lon="6.81813">
        <ele>862.2</ele>
        <time>2019-08-20T20:45:01Z</time>
      </trkpt>
      <trkpt lat="47.21361" lon="6.81732">
        <ele>863.8</ele>
        <time>2019-08-20T20:45:09Z</time>
      </trkpt>
      <trkpt lat="47.21346" lon="6.81706">
        <ele>866</ele>
        <time>2019-08-20T20:45:12Z</time>
      </trkpt>
      <trkpt lat="47.21331" lon="6.8169">
        <ele>868.6</ele>
        <time>2019-08-20T20:45:21Z</time>
      </trkpt>
      <trkpt lat="47.21273" lon="6.81649">
        <ele>875</ele>
        <time>2019-08-20T20:45:25Z</time>
      </trkpt>
      <trkpt lat="47.21263" lon="6.81606">
        <ele>876.8</ele>
        <time>2019-08-20T20:45:29Z</time>
      </trkpt>
      <trkpt lat="47.2123" lon="6.81532">
        <ele>881.4</ele>
        <time>2019-08-20T20:45:34Z</time>
      </trkpt>
      <trkpt lat="47.21198" lon="6.81443">
        <ele>882.2</ele>
        <time>2019-08-20T20:45:39Z</time>
      </trkpt>
      <trkpt lat="47.21165" lon="6.81347">
        <ele>881.6</ele>
        <time>2019-08-20T20:46:10Z</time>
      </trkpt>
      <trkpt lat="47.21148" lon="6.81301">
        <ele>881.6</ele>
        <time>2019-08-20T20:46:20Z</time>
      </trkpt>
      <trkpt lat="47.21124" lon="6.81263">
        <ele>881.2</ele>
        <time>2019-08-20T20:46:42Z</time>
      </trkpt>
      <trkpt lat="47.21081" lon="6.81215">
        <ele>881</ele>
        <time>2019-08-20T20:46:47Z</time>
      </trkpt>
      <trkpt lat="47.2104" lon="6.81172">
        <ele>880.8</ele>
        <time>2019-08-20T20:46:57Z</time>
      </trkpt>
      <trkpt lat="47.21008" lon="6.8113">
        <ele>879.6</ele>
        <time>2019-08-20T20:47:01Z</time>
      </trkpt>
      <trkpt lat="47.20996" lon="6.81118">
        <ele>879.6</ele>
        <time>2019-08-20T20:47:17Z</time>
      </trkpt>
      <trkpt lat="47.20975" lon="6.81104">
        <ele>880.4</ele>
        <time>2019-08-20T20:47:22Z</time>
      </trkpt>
      <trkpt lat="47.20949" lon="6.81087">
        <ele>882.8</ele>
        <time>2019-08-20T20:47:33Z</time>
      </trkpt>
      <trkpt lat="47.20913" lon="6.81052">
        <ele>884.6</ele>
        <time>2019-08-20T20:47:35Z</time>
      </trkpt>
      <trkpt lat="47.20867" lon="6.80993">
        <ele>885.2</ele>
        <time>2019-08-20T20:47:56Z</time>
      </trkpt>
      <trkpt lat="47.20831" lon="6.80948">
        <ele>885</ele>
        <time>2019-08-20T20:48:10Z</time>
      </trkpt>
      <trkpt lat="47.2076" lon="6.80878">
        <ele>893.8</ele>
        <time>2019-08-20T20:48:19Z</time>
      </trkpt>
      <trkpt lat="47.20734" lon="6.8084">
        <ele>894.2</ele>
        <time>2019-08-20T20:48:27Z</time>
      </trkpt>
      <trkpt lat="47.20716" lon="6.80803">
        <ele>894.5</ele>
        <time>2019-08-20T20:48:34Z</time>
      </trkpt>
      <trkpt lat="47.2072" lon="6.80762">
        <ele>892.8</ele>
        <time>2019-08-20T20:48:45Z</time>
      </trkpt>
      <trkpt lat="47.20719" lon="6.80737">
        <ele>892</ele>
        <time>2019-08-20T20:49:26Z</time>
      </trkpt>
      <trkpt lat="47.20716" lon="6.80714">
        <ele>891.6</ele>
        <time>2019-08-20T20:49:28Z</time>
      </trkpt>
      <trkpt lat="47.2071" lon="6.80676">
        <ele>890.4</ele>
        <time>2019-08-20T20:49:53Z</time>
      </trkpt>
      <trkpt lat="47.20685" lon="6.80573">
        <ele>886</ele>
        <time>2019-08-20T20:50:22Z</time>
      </trkpt>
      <trkpt lat="47.20675" lon="6.8052">
        <ele>883.6</ele>
        <time>2019-08-20T20:50:30Z</time>
      </trkpt>
      <trkpt lat="47.20677" lon="6.8047">
        <ele>880.6</ele>
        <time>2019-08-20T20:51:05Z</time>
      </trkpt>
      <trkpt lat="47.20682" lon="6.80447">
        <ele>878</ele>
        <time>2019-08-20T20:51:10Z</time>
      </trkpt>
      <trkpt lat="47.20707" lon="6.80402">
        <ele>878</ele>
        <time>2019-08-20T20:51:23Z</time>
      </trkpt>
      <trkpt lat="47.20725" lon="6.80358">
        <ele>877.6</ele>
        <time>2019-08-20T20:52:14Z</time>
      </trkpt>
      <trkpt lat="47.20733" lon="6.80321">
        <ele>877.6</ele>
        <time>2019-08-20T20:53:41Z</time>
      </trkpt>
      <trkpt lat="47.20744" lon="6.80288">
        <ele>878.8</ele>
        <time>2019-08-20T20:53:53Z</time>
      </trkpt>
      <trkpt lat="47.20758" lon="6.80257">
        <ele>879.2</ele>
        <time>2019-08-20T20:54:02Z</time>
      </trkpt>
      <trkpt lat="47.20767" lon="6.80234">
        <ele>877.6</ele>
        <time>2019-08-20T20:54:13Z</time>
      </trkpt>
      <trkpt lat="47.20781" lon="6.80196">
        <ele>883.6</ele>
        <time>2019-08-20T20:54:21Z</time>
      </trkpt>
      <trkpt lat="47.2079" lon="6.80138">
        <ele>882.6</ele>
        <time>2019-08-20T20:54:34Z</time>
      </trkpt>
      <trkpt lat="47.20788" lon="6.80086">
        <ele>882.9</ele>
        <time>2019-08-20T20:54:46Z</time>
      </trkpt>
      <trkpt lat="47.20796" lon="6.80004">
        <ele>877.6</ele>
        <time>2019-08-20T20:54:52Z</time>
      </trkpt>
      <trkpt lat="47.20801" lon="6.7997">
        <ele>877</ele>
        <time>2019-08-20T20:55:06Z</time>
      </trkpt>
      <trkpt lat="47.20808" lon="6.79923">
        <ele>880.5</ele>
        <time>2019-08-20T20:55:19Z</time>
      </trkpt>
      <trkpt lat="47.20813" lon="6.79893">
        <ele>875</ele>
        <time>2019-08-20T20:55:50Z</time>
      </trkpt>
      <trkpt lat="47.20823" lon="6.79839">
        <ele>873.4</ele>
        <time>2019-08-20T20:56:19Z</time>
      </trkpt>
      <trkpt lat="47.20824" lon="6.79838">
        <ele>873.4</ele>
        <time>2019-08-20T20:56:43Z</time>
      </trkpt>
      <trkpt lat="47.20837" lon="6.79727">
        <ele>873</ele>
        <time>2019-08-20T20:57:14Z</time>
      </trkpt>
      <trkpt lat="47.2084" lon="6.79663">
        <ele>873.2</ele>
        <time>2019-08-20T20:57:23Z</time>
      </trkpt>
      <trkpt lat="47.20841" lon="6.79631">
        <ele>873.4</ele>
        <time>2019-08-20T20:57:42Z</time>
      </trkpt>
      <trkpt lat="47.20834" lon="6.79581">
        <ele>893.5</ele>
        <time>2019-08-20T20:57:54Z</time>
      </trkpt>
      <trkpt lat="47.20801" lon="6.79536">
        <ele>897.7</ele>
        <time>2019-08-20T20:58:17Z</time>
      </trkpt>
      <trkpt lat="47.20753" lon="6.79502">
        <ele>902.3</ele>
        <time>2019-08-20T20:58:34Z</time>
      </trkpt>
      <trkpt lat="47.20698" lon="6.79501">
        <ele>886.4</ele>
        <time>2019-08-20T20:59:20Z</time>
      </trkpt>
      <trkpt lat="47.20624" lon="6.79478">
        <ele>906.7</ele>
        <time>2019-08-20T20:59:31Z</time>
      </trkpt>
      <trkpt lat="47.20668" lon="6.79459">
        <ele>891.6</ele>
        <time>2019-08-20T20:59:38Z</time>
      </trkpt>
      <trkpt lat="47.20696" lon="6.79413">
        <ele>895.2</ele>
        <time>2019-08-20T21:02:10Z</time>
      </trkpt>
      <trkpt lat="47.20711" lon="6.79393">
        <ele>897.8</ele>
        <time>2019-08-20T21:02:26Z</time>
      </trkpt>
      <trkpt lat="47.20697" lon="6.79335">
        <ele>901.6</ele>
        <time>2019-08-20T21:02:50Z</time>
      </trkpt>
      <trkpt lat="47.20668" lon="6.79279">
        <ele>905.8</ele>
        <time>2019-08-20T21:03:33Z</time>
      </trkpt>
      <trkpt lat="47.20647" lon="6.79247">
        <ele>906.4</ele>
        <time>2019-08-20T21:04:17Z</time>
      </trkpt>
      <trkpt lat="47.20611" lon="6.79165">
        <ele>907.8</ele>
        <time>2019-08-20T21:04:38Z</time>
      </trkpt>
      <trkpt lat="47.20567" lon="6.79108">
        <ele>910.6</ele>
        <time>2019-08-20T21:04:54Z</time>
      </trkpt>
      <trkpt lat="47.20538" lon="6.79061">
        <ele>912.6</ele>
        <time>2019-08-20T21:05:21Z</time>
      </trkpt>
      <trkpt lat="47.20563" lon="6.79014">
        <ele>912</ele>
        <time>2019-08-20T21:06:11Z</time>
      </trkpt>
      <trkpt lat="47.20601" lon="6.78987">
        <ele>910.2</ele>
        <time>2019-08-20T21:06:18Z</time>
      </trkpt>
      <trkpt lat="47.20621" lon="6.79007">
        <ele>901.6</ele>
        <time>2019-08-20T21:06:20Z</time>
      </trkpt>
      <trkpt lat="47.20674" lon="6.79027">
        <ele>890.4</ele>
        <time>2019-08-20T21:06:26Z</time>
      </trkpt>
      <trkpt lat="47.20714" lon="6.79022">
        <ele>881</ele>
        <time>2019-08-20T21:06:31Z</time>
      </trkpt>
      <trkpt lat="47.2073" lon="6.79002">
        <ele>895.5</ele>
        <time>2019-08-20T21:06:35Z</time>
      </trkpt>
      <trkpt lat="47.2072" lon="6.78898">
        <ele>876.2</ele>
        <time>2019-08-20T21:06:40Z</time>
      </trkpt>
      <trkpt lat="47.20728" lon="6.78813">
        <ele>872.8</ele>
        <time>2019-08-20T21:06:44Z</time>
      </trkpt>
      <trkpt lat="47.20733" lon="6.78749">
        <ele>866.8</ele>
        <time>2019-08-20T21:07:08Z</time>
      </trkpt>
      <trkpt lat="47.20729" lon="6.78701">
        <ele>867</ele>
        <time>2019-08-20T21:07:13Z</time>
      </trkpt>
      <trkpt lat="47.20725" lon="6.78621">
        <ele>868.4</ele>
        <time>2019-08-20T21:07:23Z</time>
      </trkpt>
      <trkpt lat="47.2072" lon="6.7857">
        <ele>867.6</ele>
        <time>2019-08-20T21:07:34Z</time>
      </trkpt>
      <trkpt lat="47.20739" lon="6.78481">
        <ele>882.2</ele>
        <time>2019-08-20T21:07:43Z</time>
      </trkpt>
      <trkpt lat="47.20687" lon="6.78409">
        <ele>880.1</ele>
        <time>2019-08-20T21:07:54Z</time>
      </trkpt>
      <trkpt lat="47.20671" lon="6.78343">
        <ele>863</ele>
        <time>2019-08-20T21:08:12Z</time>
      </trkpt>
      <trkpt lat="47.2069" lon="6.78277">
        <ele>884.8</ele>
        <time>2019-08-20T21:08:19Z</time>
      </trkpt>
      <trkpt lat="47.20725" lon="6.7825">
        <ele>885</ele>
        <time>2019-08-20T21:08:24Z</time>
      </trkpt>
      <trkpt lat="47.20738" lon="6.78212">
        <ele>868.8</ele>
        <time>2019-08-20T21:08:26Z</time>
      </trkpt>
      <trkpt lat="47.20785" lon="6.78148">
        <ele>881.2</ele>
        <time>2019-08-20T21:08:29Z</time>
      </trkpt>
      <trkpt lat="47.20744" lon="6.78079">
        <ele>879.6</ele>
        <time>2019-08-20T21:08:32Z</time>
      </trkpt>
      <trkpt lat="47.20702" lon="6.78031">
        <ele>881</ele>
        <time>2019-08-20T21:08:36Z</time>
      </trkpt>
      <trkpt lat="47.20682" lon="6.77985">
        <ele>880.4</ele>
        <time>2019-08-20T21:08:41Z</time>
      </trkpt>
      <trkpt lat="47.20666" lon="6.77898">
        <ele>882.8</ele>
        <time>2019-08-20T21:08:46Z</time>
      </trkpt>
      <trkpt lat="47.20608" lon="6.7777">
        <ele>884.8</ele>
        <time>2019-08-20T21:08:53Z</time>
      </trkpt>
      <trkpt lat="47.20637" lon="6.77721">
        <ele>881.9</ele>
        <time>2019-08-20T21:08:58Z</time>
      </trkpt>
      <trkpt lat="47.20587" lon="6.77697">
        <ele>882.4</ele>
        <time>2019-08-20T21:09:04Z</time>
      </trkpt>
      <trkpt lat="47.20537" lon="6.77654">
        <ele>887.6</ele>
        <time>2019-08-20T21:09:12Z</time>
      </trkpt>
      <trkpt lat="47.2044" lon="6.77658">
        <ele>882.4</ele>
        <time>2019-08-20T21:09:26Z</time>
      </trkpt>
      <trkpt lat="47.20409" lon="6.77652">
        <ele>897.5</ele>
        <time>2019-08-20T21:09:28Z</time>
      </trkpt>
      <trkpt lat="47.20399" lon="6.77606">
        <ele>888</ele>
        <time>2019-08-20T21:09:34Z</time>
      </trkpt>
      <trkpt lat="47.2039" lon="6.77475">
        <ele>894.4</ele>
        <time>2019-08-20T21:09:37Z</time>
      </trkpt>
      <trkpt lat="47.20351" lon="6.77422">
        <ele>886.4</ele>
        <time>2019-08-20T21:09:41Z</time>
      </trkpt>
      <trkpt lat="47.20337" lon="6.77378">
        <ele>893.1</ele>
        <time>2019-08-20T21:09:44Z</time>
      </trkpt>
      <trkpt lat="47.20341" lon="6.77339">
        <ele>886</ele>
        <time>2019-08-20T21:09:48Z</time>
      </trkpt>
      <trkpt lat="47.20335" lon="6.77295">
        <ele>891.1</ele>
        <time>2019-08-20T21:09:54Z</time>
      </trkpt>
      <trkpt lat="47.20312" lon="6.77265">
        <ele>885.2</ele>
        <time>2019-08-20T21:13:31Z</time>
      </trkpt>
      <trkpt lat="47.20263" lon="6.77187">
        <ele>889.2</ele>
        <time>2019-08-20T21:13:44Z</time>
      </trkpt>
      <trkpt lat="47.20228" lon="6.77099">
        <ele>888.1</ele>
        <time>2019-08-20T21:14:13Z</time>
      </trkpt>
      <trkpt lat="47.20195" lon="6.77033">
        <ele>889.2</ele>
        <time>2019-08-20T21:14:29Z</time>
      </trkpt>
      <trkpt lat="47.20074" lon="6.76919">
        <ele>889.3</ele>
        <time>2019-08-20T21:15:26Z</time>
      </trkpt>
      <trkpt lat="47.20043" lon="6.76866">
        <ele>885.6</ele>
        <time>2019-08-20T21:15:36Z</time>
      </trkpt>
      <trkpt lat="47.20007" lon="6.76751">
        <ele>890.4</ele>
        <time>2019-08-20T21:16:00Z</time>
      </trkpt>
      <trkpt lat="47.19987" lon="6.76729">
        <ele>891.2</ele>
        <time>2019-08-20T21:16:03Z</time>
      </trkpt>
      <trkpt lat="47.19917" lon="6.76687">
        <ele>892.6</ele>
        <time>2019-08-20T21:16:24Z</time>
      </trkpt>
      <trkpt lat="47.19864" lon="6.76681">
        <ele>893</ele>
        <time>2019-08-20T21:16:46Z</time>
      </trkpt>
      <trkpt lat="47.19838" lon="6.76688">
        <ele>903.8</ele>
        <time>2019-08-20T21:16:56Z</time>
      </trkpt>
      <trkpt lat="47.19819" lon="6.76673">
        <ele>894</ele>
        <time>2019-08-20T21:17:04Z</time>
      </trkpt>
      <trkpt lat="47.1978" lon="6.76608">
        <ele>895.4</ele>
        <time>2019-08-20T21:17:18Z</time>
      </trkpt>
      <trkpt lat="47.19757" lon="6.76576">
        <ele>896</ele>
        <time>2019-08-20T21:17:22Z</time>
      </trkpt>
      <trkpt lat="47.19741" lon="6.76548">
        <ele>897.6</ele>
        <time>2019-08-20T21:17:29Z</time>
      </trkpt>
      <trkpt lat="47.19731" lon="6.76484">
        <ele>898.6</ele>
        <time>2019-08-20T21:18:03Z</time>
      </trkpt>
      <trkpt lat="47.19782" lon="6.76456">
        <ele>898.2</ele>
        <time>2019-08-20T21:18:24Z</time>
      </trkpt>
      <trkpt lat="47.19803" lon="6.76419">
        <ele>897.4</ele>
        <time>2019-08-20T21:18:35Z</time>
      </trkpt>
      <trkpt lat="47.19817" lon="6.76392">
        <ele>896.6</ele>
        <time>2019-08-20T21:18:42Z</time>
      </trkpt>
      <trkpt lat="47.19854" lon="6.76339">
        <ele>912.1</ele>
        <time>2019-08-20T21:18:56Z</time>
      </trkpt>
      <trkpt lat="47.1988" lon="6.76289">
        <ele>895.2</ele>
        <time>2019-08-20T21:19:07Z</time>
      </trkpt>
      <trkpt lat="47.19907" lon="6.76257">
        <ele>902.7</ele>
        <time>2019-08-20T21:19:12Z</time>
      </trkpt>
      <trkpt lat="47.19875" lon="6.76221">
        <ele>897</ele>
        <time>2019-08-20T21:19:21Z</time>
      </trkpt>
      <trkpt lat="47.19875" lon="6.76219">
        <ele>896.4</ele>
        <time>2019-08-20T21:19:26Z</time>
      </trkpt>
      <trkpt lat="47.19875" lon="6.76218">
        <ele>896.4</ele>
        <time>2019-08-20T21:19:41Z</time>
      </trkpt>
      <trkpt lat="47.19876" lon="6.76215">
        <ele>896.4</ele>
        <time>2019-08-20T21:20:16Z</time>
      </trkpt>
      <trkpt lat="47.19876" lon="6.76214">
        <ele>896.4</ele>
        <time>2019-08-20T21:20:21Z</time>
      </trkpt>
      <trkpt lat="47.19876" lon="6.76212">
        <ele>896</ele>
        <time>2019-08-20T21:20:25Z</time>
      </trkpt>
      <trkpt lat="47.19876" lon="6.76211">
        <ele>895.8</ele>
        <time>2019-08-20T21:20:28Z</time>
      </trkpt>
      <trkpt lat="47.19876" lon="6.76209">
        <ele>895.6</ele>
        <time>2019-08-20T21:20:32Z</time>
      </trkpt>
      <trkpt lat="47.19876" lon="6.76207">
        <ele>895.6</ele>
        <time>2019-08-20T21:20:37Z</time>
      </trkpt>
      <trkpt lat="47.19877" lon="6.76169">
        <ele>905.7</ele>
        <time>2019-08-20T21:20:47Z</time>
      </trkpt>
      <trkpt lat="47.19856" lon="6.7608">
        <ele>899.3</ele>
        <time>2019-08-20T21:20:58Z</time>
      </trkpt>
      <trkpt lat="47.19814" lon="6.75971">
        <ele>897.1</ele>
        <time>2019-08-20T21:21:06Z</time>
      </trkpt>
      <trkpt lat="47.19782" lon="6.75862">
        <ele>891.3</ele>
        <time>2019-08-20T21:21:08Z</time>
      </trkpt>
      <trkpt lat="47.19761" lon="6.75826">
        <ele>889.1</ele>
        <time>2019-08-20T21:21:15Z</time>
      </trkpt>
      <trkpt lat="47.19724" lon="6.75804">
        <ele>893.2</ele>
        <time>2019-08-20T21:21:30Z</time>
      </trkpt>
      <trkpt lat="47.19707" lon="6.75781">
        <ele>887.8</ele>
        <time>2019-08-20T21:21:38Z</time>
      </trkpt>
      <trkpt lat="47.19699" lon="6.75764">
        <ele>887.8</ele>
        <time>2019-08-20T21:21:56Z</time>
      </trkpt>
      <trkpt lat="47.1969" lon="6.75726">
        <ele>887.6</ele>
        <time>2019-08-20T21:22:01Z</time>
      </trkpt>
      <trkpt lat="47.19679" lon="6.7568">
        <ele>886.6</ele>
        <time>2019-08-20T21:22:11Z</time>
      </trkpt>
      <trkpt lat="47.1966" lon="6.7562">
        <ele>884</ele>
        <time>2019-08-20T21:22:19Z</time>
      </trkpt>
      <trkpt lat="47.19628" lon="6.75534">
        <ele>888.1</ele>
        <time>2019-08-20T21:22:23Z</time>
      </trkpt>
      <trkpt lat="47.196" lon="6.75486">
        <ele>878.2</ele>
        <time>2019-08-20T21:22:25Z</time>
      </trkpt>
      <trkpt lat="47.19593" lon="6.75461">
        <ele>877.6</ele>
        <time>2019-08-20T21:22:31Z</time>
      </trkpt>
      <trkpt lat="47.19572" lon="6.75399">
        <ele>876.2</ele>
        <time>2019-08-20T21:22:39Z</time>
      </trkpt>
      <trkpt lat="47.19546" lon="6.75327">
        <ele>873.8</ele>
        <time>2019-08-20T21:22:49Z</time>
      </trkpt>
      <trkpt lat="47.1952" lon="6.75254">
        <ele>871.8</ele>
        <time>2019-08-20T21:22:55Z</time>
      </trkpt>
      <trkpt lat="47.19504" lon="6.75207">
        <ele>871</ele>
        <time>2019-08-20T21:23:07Z</time>
      </trkpt>
      <trkpt lat="47.19483" lon="6.7514">
        <ele>867.2</ele>
        <time>2019-08-20T21:23:18Z</time>
      </trkpt>
      <trkpt lat="47.19484" lon="6.7514">
        <ele>866.6</ele>
        <time>2019-08-20T21:23:29Z</time>
      </trkpt>
      <trkpt lat="47.19484" lon="6.7514">
        <ele>866.4</ele>
        <time>2019-08-20T21:23:57Z</time>
      </trkpt>
      <trkpt lat="47.19484" lon="6.7514">
        <ele>866.6</ele>
        <time>2019-08-20T21:24:02Z</time>
      </trkpt>
      <trkpt lat="47.19484" lon="6.75141">
        <ele>866.4</ele>
        <time>2019-08-20T21:24:07Z</time>
      </trkpt>
      <trkpt lat="47.19484" lon="6.75141">
        <ele>866.6</ele>
        <time>2019-08-20T21:24:13Z</time>
      </trkpt>
      <trkpt lat="47.19484" lon="6.75141">
        <ele>867</ele>
        <time>2019-08-20T21:24:17Z</time>
      </trkpt>
      <trkpt lat="47.19484" lon="6.75141">
        <ele>866.8</ele>
        <time>2019-08-20T21:24:21Z</time>
      </trkpt>
      <trkpt lat="47.19484" lon="6.75141">
        <ele>866.8</ele>
        <time>2019-08-20T21:24:24Z</time>
      </trkpt>
      <trkpt lat="47.19484" lon="6.75141">
        <ele>867.2</ele>
        <time>2019-08-20T21:24:36Z</time>
      </trkpt>
      <trkpt lat="47.19484" lon="6.75141">
        <ele>867.2</ele>
        <time>2019-08-20T21:24:45Z</time>
      </trkpt>
      <trkpt lat="47.19484" lon="6.75141">
        <ele>867.6</ele>
        <time>2019-08-20T21:24:50Z</time>
      </trkpt>
      <trkpt lat="47.19484" lon="6.75141">
        <ele>867.4</ele>
        <time>2019-08-20T21:25:53Z</time>
      </trkpt>
      <trkpt lat="47.19484" lon="6.75141">
        <ele>867.4</ele>
        <time>2019-08-20T21:25:59Z</time>
      </trkpt>
      <trkpt lat="47.19484" lon="6.75141">
        <ele>867.4</ele>
        <time>2019-08-20T21:26:07Z</time>
      </trkpt>
      <trkpt lat="47.19484" lon="6.75141">
        <ele>867.4</ele>
        <time>2019-08-20T21:26:25Z</time>
      </trkpt>
      <trkpt lat="47.19484" lon="6.75141">
        <ele>867.8</ele>
        <time>2019-08-20T21:26:36Z</time>
      </trkpt>
      <trkpt lat="47.19484" lon="6.75141">
        <ele>867.8</ele>
        <time>2019-08-20T21:26:52Z</time>
      </trkpt>
      <trkpt lat="47.19484" lon="6.75141">
        <ele>867.6</ele>
        <time>2019-08-20T21:27:02Z</time>
      </trkpt>
      <trkpt lat="47.19484" lon="6.75141">
        <ele>867.6</ele>
        <time>2019-08-20T21:27:07Z</time>
      </trkpt>
      <trkpt lat="47.19463" lon="6.75087">
        <ele>868.8</ele>
        <time>2019-08-20T21:27:12Z</time>
      </trkpt>
      <trkpt lat="47.19399" lon="6.749">
        <ele>870.5</ele>
        <time>2019-08-20T21:27:19Z</time>
      </trkpt>
      <trkpt lat="47.19385" lon="6.74931">
        <ele>871.9</ele>
        <time>2019-08-20T21:27:21Z</time>
      </trkpt>
      <trkpt lat="47.19355" lon="6.74893">
        <ele>869</ele>
        <time>2019-08-20T21:27:27Z</time>
      </trkpt>
      <trkpt lat="47.19343" lon="6.74882">
        <ele>869.2</ele>
        <time>2019-08-20T21:28:09Z</time>
      </trkpt>
      <trkpt lat="47.19326" lon="6.74899">
        <ele>869.2</ele>
        <time>2019-08-20T21:29:09Z</time>
      </trkpt>
      <trkpt lat="47.19314" lon="6.74932">
        <ele>869.8</ele>
        <time>2019-08-20T21:29:20Z</time>
      </trkpt>
      <trkpt lat="47.1929" lon="6.74957">
        <ele>873</ele>
        <time>2019-08-20T21:29:30Z</time>
      </trkpt>
      <trkpt lat="47.19258" lon="6.75005">
        <ele>875.8</ele>
        <time>2019-08-20T21:29:52Z</time>
      </trkpt>
      <trkpt lat="47.19245" lon="6.7502">
        <ele>877</ele>
        <time>2019-08-20T21:30:43Z</time>
      </trkpt>
      <trkpt lat="47.19225" lon="6.75032">
        <ele>878.6</ele>
        <time>2019-08-20T21:30:51Z</time>
      </trkpt>
      <trkpt lat="47.19187" lon="6.7504">
        <ele>881.2</ele>
        <time>2019-08-20T21:31:00Z</time>
      </trkpt>
      <trkpt lat="47.19173" lon="6.75017">
        <ele>894.6</ele>
        <time>2019-08-20T21:31:14Z</time>
      </trkpt>
      <trkpt lat="47.19146" lon="6.74968">
        <ele>901.6</ele>
        <time>2019-08-20T21:31:29Z</time>
      </trkpt>
      <trkpt lat="47.19105" lon="6.74872">
        <ele>891.6</ele>
        <time>2019-08-20T21:31:33Z</time>
      </trkpt>
      <trkpt lat="47.19088" lon="6.74843">
        <ele>891.2</ele>
        <time>2019-08-20T21:31:35Z</time>
      </trkpt>
      <trkpt lat="47.19076" lon="6.74811">
        <ele>890.8</ele>
        <time>2019-08-20T21:31:46Z</time>
      </trkpt>
      <trkpt lat="47.19065" lon="6.74763">
        <ele>889.2</ele>
        <time>2019-08-20T21:31:54Z</time>
      </trkpt>
      <trkpt lat="47.19059" lon="6.74735">
        <ele>887.8</ele>
        <time>2019-08-20T21:32:07Z</time>
      </trkpt>
      <trkpt lat="47.19034" lon="6.74638">
        <ele>886.4</ele>
        <time>2019-08-20T21:32:27Z</time>
      </trkpt>
      <trkpt lat="47.19025" lon="6.74603">
        <ele>886.2</ele>
        <time>2019-08-20T21:33:44Z</time>
      </trkpt>
      <trkpt lat="47.19012" lon="6.74547">
        <ele>885.4</ele>
        <time>2019-08-20T21:34:07Z</time>
      </trkpt>
      <trkpt lat="47.19008" lon="6.74514">
        <ele>884.2</ele>
        <time>2019-08-20T21:34:37Z</time>
      </trkpt>
      <trkpt lat="47.19009" lon="6.74453">
        <ele>896.6</ele>
        <time>2019-08-20T21:36:32Z</time>
      </trkpt>
      <trkpt lat="47.18989" lon="6.74479">
        <ele>881.6</ele>
        <time>2019-08-20T21:36:47Z</time>
      </trkpt>
      <trkpt lat="47.18978" lon="6.74493">
        <ele>880.6</ele>
        <time>2019-08-20T21:38:16Z</time>
      </trkpt>
      <trkpt lat="47.18952" lon="6.74536">
        <ele>880.2</ele>
        <time>2019-08-20T21:41:59Z</time>
      </trkpt>
      <trkpt lat="47.18933" lon="6.74583">
        <ele>879.4</ele>
        <time>2019-08-20T21:43:43Z</time>
      </trkpt>
      <trkpt lat="47.1891" lon="6.74646">
        <ele>878</ele>
        <time>2019-08-20T21:44:22Z</time>
      </trkpt>
      <trkpt lat="47.1889" lon="6.74697">
        <ele>888.3</ele>
        <time>2019-08-20T21:45:00Z</time>
      </trkpt>
      <trkpt lat="47.18846" lon="6.74713">
        <ele>875.6</ele>
        <time>2019-08-20T21:46:45Z</time>
      </trkpt>
      <trkpt lat="47.18812" lon="6.74717">
        <ele>874.6</ele>
        <time>2019-08-20T21:46:57Z</time>
      </trkpt>
      <trkpt lat="47.18763" lon="6.74719">
        <ele>873.6</ele>
        <time>2019-08-20T21:47:35Z</time>
      </trkpt>
      <trkpt lat="47.18694" lon="6.74704">
        <ele>889.1</ele>
        <time>2019-08-20T21:47:59Z</time>
      </trkpt>
      <trkpt lat="47.1863" lon="6.747">
        <ele>892.2</ele>
        <time>2019-08-20T21:48:08Z</time>
      </trkpt>
      <trkpt lat="47.18587" lon="6.74712">
        <ele>892.8</ele>
        <time>2019-08-20T21:48:12Z</time>
      </trkpt>
      <trkpt lat="47.18544" lon="6.7473">
        <ele>884.8</ele>
        <time>2019-08-20T21:48:48Z</time>
      </trkpt>
      <trkpt lat="47.18519" lon="6.74715">
        <ele>893.4</ele>
        <time>2019-08-20T21:49:01Z</time>
      </trkpt>
      <trkpt lat="47.1849" lon="6.74723">
        <ele>892</ele>
        <time>2019-08-20T21:49:26Z</time>
      </trkpt>
      <trkpt lat="47.18464" lon="6.74744">
        <ele>892.1</ele>
        <time>2019-08-20T21:49:38Z</time>
      </trkpt>
      <trkpt lat="47.1843" lon="6.74778">
        <ele>896.1</ele>
        <time>2019-08-20T21:50:00Z</time>
      </trkpt>
      <trkpt lat="47.1841" lon="6.74795">
        <ele>883.8</ele>
        <time>2019-08-20T21:50:07Z</time>
      </trkpt>
      <trkpt lat="47.18367" lon="6.74807">
        <ele>882.6</ele>
        <time>2019-08-20T21:50:21Z</time>
      </trkpt>
      <trkpt lat="47.18331" lon="6.7481">
        <ele>880.2</ele>
        <time>2019-08-20T21:50:28Z</time>
      </trkpt>
      <trkpt lat="47.18274" lon="6.74822">
        <ele>881</ele>
        <time>2019-08-20T21:50:42Z</time>
      </trkpt>
      <trkpt lat="47.18243" lon="6.74837">
        <ele>881.2</ele>
        <time>2019-08-20T21:50:58Z</time>
      </trkpt>
      <trkpt lat="47.18178" lon="6.74882">
        <ele>880.2</ele>
        <time>2019-08-20T21:51:06Z</time>
      </trkpt>
      <trkpt lat="47.18147" lon="6.74913">
        <ele>881.6</ele>
        <time>2019-08-20T21:51:11Z</time>
      </trkpt>
      <trkpt lat="47.181" lon="6.74947">
        <ele>905.9</ele>
        <time>2019-08-20T21:51:20Z</time>
      </trkpt>
      <trkpt lat="47.18068" lon="6.74925">
        <ele>897.1</ele>
        <time>2019-08-20T21:53:32Z</time>
      </trkpt>
      <trkpt lat="47.18065" lon="6.74899">
        <ele>893.4</ele>
        <time>2019-08-20T21:53:36Z</time>
      </trkpt>
      <trkpt lat="47.18076" lon="6.74869">
        <ele>892.4</ele>
        <time>2019-08-20T21:53:55Z</time>
      </trkpt>
      <trkpt lat="47.18085" lon="6.74827">
        <ele>894.2</ele>
        <time>2019-08-20T21:54:00Z</time>
      </trkpt>
      <trkpt lat="47.18066" lon="6.74733">
        <ele>877.8</ele>
        <time>2019-08-20T21:54:06Z</time>
      </trkpt>
      <trkpt lat="47.18032" lon="6.74702">
        <ele>877</ele>
        <time>2019-08-20T21:54:26Z</time>
      </trkpt>
      <trkpt lat="47.1799" lon="6.74674">
        <ele>876.4</ele>
        <time>2019-08-20T21:54:35Z</time>
      </trkpt>
      <trkpt lat="47.17957" lon="6.74651">
        <ele>884.8</ele>
        <time>2019-08-20T21:54:42Z</time>
      </trkpt>
      <trkpt lat="47.17928" lon="6.74625">
        <ele>876</ele>
        <time>2019-08-20T21:54:50Z</time>
      </trkpt>
      <trkpt lat="47.17909" lon="6.7464">
        <ele>892.3</ele>
        <time>2019-08-20T21:54:57Z</time>
      </trkpt>
      <trkpt lat="47.17874" lon="6.74696">
        <ele>895.1</ele>
        <time>2019-08-20T21:55:27Z</time>
      </trkpt>
      <trkpt lat="47.17858" lon="6.74754">
        <ele>896</ele>
        <time>2019-08-20T21:55:34Z</time>
      </trkpt>
      <trkpt lat="47.17829" lon="6.74798">
        <ele>886</ele>
        <time>2019-08-20T21:55:45Z</time>
      </trkpt>
      <trkpt lat="47.17803" lon="6.74776">
        <ele>888.6</ele>
        <time>2019-08-20T21:55:52Z</time>
      </trkpt>
      <trkpt lat="47.17766" lon="6.74732">
        <ele>888.4</ele>
        <time>2019-08-20T21:56:01Z</time>
      </trkpt>
      <trkpt lat="47.1775" lon="6.74633">
        <ele>900.1</ele>
        <time>2019-08-20T21:56:10Z</time>
      </trkpt>
      <trkpt lat="47.17733" lon="6.74511">
        <ele>901.6</ele>
        <time>2019-08-20T21:56:23Z</time>
      </trkpt>
      <trkpt lat="47.1772" lon="6.74442">
        <ele>897.5</ele>
        <time>2019-08-20T21:56:35Z</time>
      </trkpt>
      <trkpt lat="47.1774" lon="6.74362">
        <ele>895.4</ele>
        <time>2019-08-20T21:56:47Z</time>
      </trkpt>
      <trkpt lat="47.17782" lon="6.74231">
        <ele>889.9</ele>
        <time>2019-08-20T21:57:01Z</time>
      </trkpt>
      <trkpt lat="47.17807" lon="6.74173">
        <ele>888.5</ele>
        <time>2019-08-20T21:57:08Z</time>
      </trkpt>
      <trkpt lat="47.17838" lon="6.7407">
        <ele>884.2</ele>
        <time>2019-08-20T21:57:13Z</time>
      </trkpt>
      <trkpt lat="47.17871" lon="6.74025">
        <ele>884.4</ele>
        <time>2019-08-20T21:57:20Z</time>
      </trkpt>
      <trkpt lat="47.17865" lon="6.73985">
        <ele>883.7</ele>
        <time>2019-08-20T21:57:31Z</time>
      </trkpt>
      <trkpt lat="47.17845" lon="6.73924">
        <ele>883.3</ele>
        <time>2019-08-20T21:57:49Z</time>
      </trkpt>
      <trkpt lat="47.17822" lon="6.73882">
        <ele>882.7</ele>
        <time>2019-08-20T21:58:04Z</time>
      </trkpt>
      <trkpt lat="47.17799" lon="6.73842">
        <ele>882.6</ele>
        <time>2019-08-20T21:58:19Z</time>
      </trkpt>
      <trkpt lat="47.17779" lon="6.73781">
        <ele>879</ele>
        <time>2019-08-20T21:58:35Z</time>
      </trkpt>
      <trkpt lat="47.1778" lon="6.73716">
        <ele>880.7</ele>
        <time>2019-08-20T21:59:04Z</time>
      </trkpt>
      <trkpt lat="47.17806" lon="6.7365">
        <ele>878.8</ele>
        <time>2019-08-20T21:59:32Z</time>
      </trkpt>
      <trkpt lat="47.17855" lon="6.73588">
        <ele>875</ele>
        <time>2019-08-20T21:59:44Z</time>
      </trkpt>
      <trkpt lat="47.17902" lon="6.73519">
        <ele>876.2</ele>
        <time>2019-08-20T22:00:00Z</time>
      </trkpt>
      <trkpt lat="47.17898" lon="6.73493">
        <ele>876.3</ele>
        <time>2019-08-20T22:00:07Z</time>
      </trkpt>
      <trkpt lat="47.17862" lon="6.73389">
        <ele>876.4</ele>
        <time>2019-08-20T22:00:19Z</time>
      </trkpt>
      <trkpt lat="47.17836" lon="6.73263">
        <ele>871.2</ele>
        <time>2019-08-20T22:00:30Z</time>
      </trkpt>
      <trkpt lat="47.17834" lon="6.7322">
        <ele>877.4</ele>
        <time>2019-08-20T22:00:37Z</time>
      </trkpt>
      <trkpt lat="47.17868" lon="6.73224">
        <ele>877.6</ele>
        <time>2019-08-20T22:01:13Z</time>
      </trkpt>
      <trkpt lat="47.17971" lon="6.73255">
        <ele>882.2</ele>
        <time>2019-08-20T22:01:20Z</time>
      </trkpt>
      <trkpt lat="47.18002" lon="6.73234">
        <ele>889.9</ele>
        <time>2019-08-20T22:01:33Z</time>
      </trkpt>
      <trkpt lat="47.18007" lon="6.73151">
        <ele>880.2</ele>
        <time>2019-08-20T22:01:45Z</time>
      </trkpt>
      <trkpt lat="47.18016" lon="6.73112">
        <ele>881.8</ele>
        <time>2019-08-20T22:02:30Z</time>
      </trkpt>
      <trkpt lat="47.18022" lon="6.73065">
        <ele>882.4</ele>
        <time>2019-08-20T22:03:02Z</time>
      </trkpt>
      <trkpt lat="47.18027" lon="6.73035">
        <ele>882.2</ele>
        <time>2019-08-20T22:03:38Z</time>
      </trkpt>
      <trkpt lat="47.18032" lon="6.72997">
        <ele>881.8</ele>
        <time>2019-08-20T22:03:44Z</time>
      </trkpt>
      <trkpt lat="47.18036" lon="6.72953">
        <ele>881</ele>
        <time>2019-08-20T22:03:49Z</time>
      </trkpt>
      <trkpt lat="47.18033" lon="6.72913">
        <ele>879.6</ele>
        <time>2019-08-20T22:04:18Z</time>
      </trkpt>
      <trkpt lat="47.18037" lon="6.72862">
        <ele>878.8</ele>
        <time>2019-08-20T22:04:39Z</time>
      </trkpt>
      <trkpt lat="47.18044" lon="6.72833">
        <ele>876.8</ele>
        <time>2019-08-20T22:05:04Z</time>
      </trkpt>
      <trkpt lat="47.18057" lon="6.72812">
        <ele>873.2</ele>
        <time>2019-08-20T22:05:12Z</time>
      </trkpt>
      <trkpt lat="47.18072" lon="6.72791">
        <ele>869</ele>
        <time>2019-08-20T22:05:29Z</time>
      </trkpt>
      <trkpt lat="47.18108" lon="6.72756">
        <ele>865.8</ele>
        <time>2019-08-20T22:05:49Z</time>
      </trkpt>
      <trkpt lat="47.1812" lon="6.72725">
        <ele>864.8</ele>
        <time>2019-08-20T22:06:03Z</time>
      </trkpt>
      <trkpt lat="47.18121" lon="6.72652">
        <ele>879.8</ele>
        <time>2019-08-20T22:06:17Z</time>
      </trkpt>
      <trkpt lat="47.18172" lon="6.72607">
        <ele>856.2</ele>
        <time>2019-08-20T22:06:37Z</time>
      </trkpt>
      <trkpt lat="47.18202" lon="6.72579">
        <ele>854</ele>
        <time>2019-08-20T22:06:49Z</time>
      </trkpt>
      <trkpt lat="47.18204" lon="6.72519">
        <ele>851.8</ele>
        <time>2019-08-20T22:07:03Z</time>
      </trkpt>
      <trkpt lat="47.18221" lon="6.7247">
        <ele>851.8</ele>
        <time>2019-08-20T22:07:06Z</time>
      </trkpt>
      <trkpt lat="47.1823" lon="6.72356">
        <ele>851.6</ele>
        <time>2019-08-20T22:07:18Z</time>
      </trkpt>
      <trkpt lat="47.18229" lon="6.72305">
        <ele>854</ele>
        <time>2019-08-20T22:07:31Z</time>
      </trkpt>
      <trkpt lat="47.18228" lon="6.72194">
        <ele>869.2</ele>
        <time>2019-08-20T22:07:42Z</time>
      </trkpt>
      <trkpt lat="47.18224" lon="6.7213">
        <ele>870.7</ele>
        <time>2019-08-20T22:07:46Z</time>
      </trkpt>
      <trkpt lat="47.18213" lon="6.72028">
        <ele>870.8</ele>
        <time>2019-08-20T22:08:03Z</time>
      </trkpt>
      <trkpt lat="47.18219" lon="6.7195">
        <ele>869.4</ele>
        <time>2019-08-20T22:08:10Z</time>
      </trkpt>
      <trkpt lat="47.18172" lon="6.71954">
        <ele>868.3</ele>
        <time>2019-08-20T22:08:16Z</time>
      </trkpt>
      <trkpt lat="47.18111" lon="6.72016">
        <ele>870</ele>
        <time>2019-08-20T22:08:22Z</time>
      </trkpt>
      <trkpt lat="47.18095" lon="6.72001">
        <ele>861.2</ele>
        <time>2019-08-20T22:08:24Z</time>
      </trkpt>
      <trkpt lat="47.1805" lon="6.71894">
        <ele>869.7</ele>
        <time>2019-08-20T22:08:30Z</time>
      </trkpt>
      <trkpt lat="47.18013" lon="6.71864">
        <ele>870.3</ele>
        <time>2019-08-20T22:09:27Z</time>
      </trkpt>
      <trkpt lat="47.17982" lon="6.71882">
        <ele>870.9</ele>
        <time>2019-08-20T22:09:35Z</time>
      </trkpt>
      <trkpt lat="47.17956" lon="6.71931">
        <ele>871.6</ele>
        <time>2019-08-20T22:09:50Z</time>
      </trkpt>
      <trkpt lat="47.17934" lon="6.71978">
        <ele>861.4</ele>
        <time>2019-08-20T22:10:01Z</time>
      </trkpt>
      <trkpt lat="47.1791" lon="6.72025">
        <ele>874</ele>
        <time>2019-08-20T22:10:12Z</time>
      </trkpt>
      <trkpt lat="47.17875" lon="6.72049">
        <ele>875.6</ele>
        <time>2019-08-20T22:11:10Z</time>
      </trkpt>
      <trkpt lat="47.17834" lon="6.72021">
        <ele>876.1</ele>
        <time>2019-08-20T22:11:19Z</time>
      </trkpt>
      <trkpt lat="47.17809" lon="6.71891">
        <ele>875.1</ele>
        <time>2019-08-20T22:11:34Z</time>
      </trkpt>
      <trkpt lat="47.17771" lon="6.71858">
        <ele>878.2</ele>
        <time>2019-08-20T22:12:08Z</time>
      </trkpt>
      <trkpt lat="47.17752" lon="6.718">
        <ele>880.4</ele>
        <time>2019-08-20T22:12:16Z</time>
      </trkpt>
      <trkpt lat="47.17758" lon="6.71684">
        <ele>881.1</ele>
        <time>2019-08-20T22:12:19Z</time>
      </trkpt>
      <trkpt lat="47.17782" lon="6.71598">
        <ele>862.6</ele>
        <time>2019-08-20T22:12:31Z</time>
      </trkpt>
      <trkpt lat="47.17796" lon="6.7156">
        <ele>864</ele>
        <time>2019-08-20T22:12:40Z</time>
      </trkpt>
      <trkpt lat="47.17815" lon="6.71505">
        <ele>877.9</ele>
        <time>2019-08-20T22:12:48Z</time>
      </trkpt>
      <trkpt lat="47.17791" lon="6.71418">
        <ele>863.6</ele>
        <time>2019-08-20T22:12:53Z</time>
      </trkpt>
      <trkpt lat="47.17782" lon="6.71336">
        <ele>880.9</ele>
        <time>2019-08-20T22:12:59Z</time>
      </trkpt>
      <trkpt lat="47.17781" lon="6.71235">
        <ele>887.6</ele>
        <time>2019-08-20T22:13:09Z</time>
      </trkpt>
      <trkpt lat="47.17774" lon="6.71114">
        <ele>893.7</ele>
        <time>2019-08-20T22:13:17Z</time>
      </trkpt>
      <trkpt lat="47.17753" lon="6.70999">
        <ele>893.4</ele>
        <time>2019-08-20T22:13:23Z</time>
      </trkpt>
      <trkpt lat="47.17728" lon="6.7093">
        <ele>897.7</ele>
        <time>2019-08-20T22:13:27Z</time>
      </trkpt>
      <trkpt lat="47.1773" lon="6.70776">
        <ele>891.7</ele>
        <time>2019-08-20T22:13:32Z</time>
      </trkpt>
      <trkpt lat="47.17743" lon="6.70723">
        <ele>885.1</ele>
        <time>2019-08-20T22:13:37Z</time>
      </trkpt>
      <trkpt lat="47.17778" lon="6.70713">
        <ele>877.7</ele>
        <time>2019-08-20T22:13:45Z</time>
      </trkpt>
      <trkpt lat="47.17861" lon="6.70792">
        <ele>873.7</ele>
        <time>2019-08-20T22:13:53Z</time>
      </trkpt>
      <trkpt lat="47.17912" lon="6.70804">
        <ele>872.1</ele>
        <time>2019-08-20T22:14:16Z</time>
      </trkpt>
      <trkpt lat="47.17994" lon="6.7079">
        <ele>866.4</ele>
        <time>2019-08-20T22:14:33Z</time>
      </trkpt>
      <trkpt lat="47.18018" lon="6.70806">
        <ele>861.6</ele>
        <time>2019-08-20T22:14:50Z</time>
      </trkpt>
      <trkpt lat="47.18102" lon="6.70904">
        <ele>859.2</ele>
        <time>2019-08-20T22:15:16Z</time>
      </trkpt>
      <trkpt lat="47.18128" lon="6.70907">
        <ele>858.8</ele>
        <time>2019-08-20T22:16:14Z</time>
      </trkpt>
      <trkpt lat="47.18183" lon="6.70856">
        <ele>858.4</ele>
        <time>2019-08-20T22:16:53Z</time>
      </trkpt>
      <trkpt lat="47.1823" lon="6.70796">
        <ele>864.4</ele>
        <time>2019-08-20T22:16:57Z</time>
      </trkpt>
      <trkpt lat="47.18261" lon="6.70829">
        <ele>863</ele>
        <time>2019-08-20T22:17:08Z</time>
      </trkpt>
      <trkpt lat="47.18298" lon="6.70847">
        <ele>861.9</ele>
        <time>2019-08-20T22:17:11Z</time>
      </trkpt>
      <trkpt lat="47.18391" lon="6.70803">
        <ele>857</ele>
        <time>2019-08-20T22:17:22Z</time>
      </trkpt>
      <trkpt lat="47.18512" lon="6.70741">
        <ele>853</ele>
        <time>2019-08-20T22:17:51Z</time>
      </trkpt>
      <trkpt lat="47.18564" lon="6.70704">
        <ele>854.8</ele>
        <time>2019-08-20T22:18:01Z</time>
      </trkpt>
      <trkpt lat="47.18605" lon="6.70719">
        <ele>856.5</ele>
        <time>2019-08-20T22:18:13Z</time>
      </trkpt>
      <trkpt lat="47.1866" lon="6.70718">
        <ele>858</ele>
        <time>2019-08-20T22:18:25Z</time>
      </trkpt>
      <trkpt lat="47.18703" lon="6.70681">
        <ele>856.2</ele>
        <time>2019-08-20T22:18:31Z</time>
      </trkpt>
      <trkpt lat="47.18742" lon="6.70653">
        <ele>860</ele>
        <time>2019-08-20T22:18:44Z</time>
      </trkpt>
      <trkpt lat="47.18834" lon="6.7058">
        <ele>861</ele>
        <time>2019-08-20T22:19:03Z</time>
      </trkpt>
      <trkpt lat="47.18883" lon="6.70538">
        <ele>861.2</ele>
        <time>2019-08-20T22:19:08Z</time>
      </trkpt>
      <trkpt lat="47.18934" lon="6.70518">
        <ele>861.6</ele>
        <time>2019-08-20T22:19:21Z</time>
      </trkpt>
      <trkpt lat="47.18989" lon="6.70502">
        <ele>861.4</ele>
        <time>2019-08-20T22:19:27Z</time>
      </trkpt>
      <trkpt lat="47.19071" lon="6.70504">
        <ele>858</ele>
        <time>2019-08-20T22:20:57Z</time>
      </trkpt>
      <trkpt lat="47.19122" lon="6.70495">
        <ele>857.2</ele>
        <time>2019-08-20T22:22:37Z</time>
      </trkpt>
      <trkpt lat="47.19175" lon="6.70479">
        <ele>858.6</ele>
        <time>2019-08-20T22:23:02Z</time>
      </trkpt>
      <trkpt lat="47.19211" lon="6.70478">
        <ele>860.6</ele>
        <time>2019-08-20T22:23:06Z</time>
      </trkpt>
      <trkpt lat="47.19281" lon="6.70495">
        <ele>863.8</ele>
        <time>2019-08-20T22:23:14Z</time>
      </trkpt>
      <trkpt lat="47.19341" lon="6.7048">
        <ele>860.2</ele>
        <time>2019-08-20T22:23:17Z</time>
      </trkpt>
      <trkpt lat="47.19366" lon="6.70464">
        <ele>860</ele>
        <time>2019-08-20T22:23:23Z</time>
      </trkpt>
      <trkpt lat="47.19406" lon="6.70433">
        <ele>860.6</ele>
        <time>2019-08-20T22:23:25Z</time>
      </trkpt>
      <trkpt lat="47.19427" lon="6.70421">
        <ele>861</ele>
        <time>2019-08-20T22:23:30Z</time>
      </trkpt>
      <trkpt lat="47.19498" lon="6.70393">
        <ele>862.6</ele>
        <time>2019-08-20T22:23:39Z</time>
      </trkpt>
      <trkpt lat="47.19529" lon="6.70384">
        <ele>873.1</ele>
        <time>2019-08-20T22:23:43Z</time>
      </trkpt>
      <trkpt lat="47.19548" lon="6.70395">
        <ele>866.2</ele>
        <time>2019-08-20T22:28:38Z</time>
      </trkpt>
      <trkpt lat="47.19562" lon="6.70402">
        <ele>867.2</ele>
        <time>2019-08-20T22:28:53Z</time>
      </trkpt>
      <trkpt lat="47.19583" lon="6.70399">
        <ele>869.4</ele>
        <time>2019-08-20T22:29:04Z</time>
      </trkpt>
      <trkpt lat="47.19591" lon="6.70397">
        <ele>870</ele>
        <time>2019-08-20T22:29:10Z</time>
      </trkpt>
      <trkpt lat="47.1962" lon="6.70378">
        <ele>874</ele>
        <time>2019-08-20T22:29:23Z</time>
      </trkpt>
      <trkpt lat="47.19655" lon="6.70367">
        <ele>877.8</ele>
        <time>2019-08-20T22:29:33Z</time>
      </trkpt>
      <trkpt lat="47.19687" lon="6.70368">
        <ele>883</ele>
        <time>2019-08-20T22:29:43Z</time>
      </trkpt>
      <trkpt lat="47.1971" lon="6.70373">
        <ele>888.2</ele>
        <time>2019-08-20T22:29:53Z</time>
      </trkpt>
      <trkpt lat="47.19737" lon="6.70355">
        <ele>896.2</ele>
        <time>2019-08-20T22:30:00Z</time>
      </trkpt>
      <trkpt lat="47.1976" lon="6.70333">
        <ele>902.4</ele>
        <time>2019-08-20T22:30:08Z</time>
      </trkpt>
      <trkpt lat="47.19778" lon="6.70318">
        <ele>906.8</ele>
        <time>2019-08-20T22:30:16Z</time>
      </trkpt>
      <trkpt lat="47.19812" lon="6.70301">
        <ele>913</ele>
        <time>2019-08-20T22:30:24Z</time>
      </trkpt>
      <trkpt lat="47.19845" lon="6.70307">
        <ele>918.4</ele>
        <time>2019-08-20T22:30:29Z</time>
      </trkpt>
      <trkpt lat="47.19877" lon="6.70308">
        <ele>921.8</ele>
        <time>2019-08-20T22:30:34Z</time>
      </trkpt>
      <trkpt lat="47.19908" lon="6.70309">
        <ele>926.2</ele>
        <time>2019-08-20T22:30:42Z</time>
      </trkpt>
      <trkpt lat="47.19924" lon="6.70309">
        <ele>927.8</ele>
        <time>2019-08-20T22:30:45Z</time>
      </trkpt>
      <trkpt lat="47.19945" lon="6.70307">
        <ele>937.3</ele>
        <time>2019-08-20T22:30:48Z</time>
      </trkpt>
      <trkpt lat="47.19944" lon="6.70289">
        <ele>930.2</ele>
        <time>2019-08-20T22:30:51Z</time>
      </trkpt>
      <trkpt lat="47.19944" lon="6.70289">
        <ele>930.2</ele>
        <time>2019-08-20T22:30:54Z</time>
      </trkpt>
      <trkpt lat="47.19935" lon="6.70269">
        <ele>929.8</ele>
        <time>2019-08-20T22:30:59Z</time>
      </trkpt>
      <trkpt lat="47.19924" lon="6.70236">
        <ele>929.6</ele>
        <time>2019-08-20T22:31:03Z</time>
      </trkpt>
      <trkpt lat="47.19919" lon="6.7019">
        <ele>928.6</ele>
        <time>2019-08-20T22:31:09Z</time>
      </trkpt>
      <trkpt lat="47.19892" lon="6.70126">
        <ele>927</ele>
        <time>2019-08-20T22:31:59Z</time>
      </trkpt>
      <trkpt lat="47.19835" lon="6.69999">
        <ele>925.4</ele>
        <time>2019-08-20T22:32:14Z</time>
      </trkpt>
      <trkpt lat="47.19823" lon="6.69969">
        <ele>925.4</ele>
        <time>2019-08-20T22:32:26Z</time>
      </trkpt>
      <trkpt lat="47.19795" lon="6.69899">
        <ele>923.6</ele>
        <time>2019-08-20T22:32:57Z</time>
      </trkpt>
      <trkpt lat="47.19779" lon="6.69866">
        <ele>928.7</ele>
        <time>2019-08-20T22:33:15Z</time>
      </trkpt>
      <trkpt lat="47.19733" lon="6.6982">
        <ele>920.4</ele>
        <time>2019-08-20T22:33:34Z</time>
      </trkpt>
      <trkpt lat="47.19719" lon="6.69805">
        <ele>920.2</ele>
        <time>2019-08-20T22:34:03Z</time>
      </trkpt>
      <trkpt lat="47.19701" lon="6.69777">
        <ele>920.2</ele>
        <time>2019-08-20T22:34:09Z</time>
      </trkpt>
      <trkpt lat="47.19657" lon="6.69662">
        <ele>918.4</ele>
        <time>2019-08-20T22:34:20Z</time>
      </trkpt>
      <trkpt lat="47.1964" lon="6.69574">
        <ele>926</ele>
        <time>2019-08-20T22:34:31Z</time>
      </trkpt>
      <trkpt lat="47.19624" lon="6.69529">
        <ele>927.3</ele>
        <time>2019-08-20T22:34:35Z</time>
      </trkpt>
      <trkpt lat="47.19598" lon="6.69461">
        <ele>926.7</ele>
        <time>2019-08-20T22:35:05Z</time>
      </trkpt>
      <trkpt lat="47.19574" lon="6.69391">
        <ele>929.3</ele>
        <time>2019-08-20T22:35:12Z</time>
      </trkpt>
      <trkpt lat="47.19552" lon="6.69317">
        <ele>930.4</ele>
        <time>2019-08-20T22:35:23Z</time>
      </trkpt>
      <trkpt lat="47.19531" lon="6.69246">
        <ele>905.8</ele>
        <time>2019-08-20T22:35:38Z</time>
      </trkpt>
      <trkpt lat="47.1952" lon="6.69172">
        <ele>934.1</ele>
        <time>2019-08-20T22:35:42Z</time>
      </trkpt>
      <trkpt lat="47.19512" lon="6.69119">
        <ele>932</ele>
        <time>2019-08-20T22:35:48Z</time>
      </trkpt>
      <trkpt lat="47.19508" lon="6.69047">
        <ele>930.5</ele>
        <time>2019-08-20T22:35:55Z</time>
      </trkpt>
      <trkpt lat="47.19506" lon="6.6896">
        <ele>928.3</ele>
        <time>2019-08-20T22:36:11Z</time>
      </trkpt>
      <trkpt lat="47.19504" lon="6.68857">
        <ele>923.1</ele>
        <time>2019-08-20T22:36:14Z</time>
      </trkpt>
      <trkpt lat="47.19497" lon="6.68786">
        <ele>923.8</ele>
        <time>2019-08-20T22:36:18Z</time>
      </trkpt>
      <trkpt lat="47.19487" lon="6.6873">
        <ele>918.9</ele>
        <time>2019-08-20T22:36:23Z</time>
      </trkpt>
      <trkpt lat="47.19502" lon="6.68713">
        <ele>917.9</ele>
        <time>2019-08-20T22:36:29Z</time>
      </trkpt>
      <trkpt lat="47.19537" lon="6.68705">
        <ele>894.8</ele>
        <time>2019-08-20T22:36:32Z</time>
      </trkpt>
      <trkpt lat="47.1954" lon="6.68671">
        <ele>898.2</ele>
        <time>2019-08-20T22:36:36Z</time>
      </trkpt>
      <trkpt lat="47.19543" lon="6.6864">
        <ele>902</ele>
        <time>2019-08-20T22:36:40Z</time>
      </trkpt>
      <trkpt lat="47.19544" lon="6.68609">
        <ele>906.2</ele>
        <time>2019-08-20T22:36:44Z</time>
      </trkpt>
      <trkpt lat="47.19544" lon="6.68564">
        <ele>910</ele>
        <time>2019-08-20T22:36:53Z</time>
      </trkpt>
      <trkpt lat="47.19544" lon="6.68514">
        <ele>914.4</ele>
        <time>2019-08-20T22:37:02Z</time>
      </trkpt>
      <trkpt lat="47.1954" lon="6.6849">
        <ele>915.4</ele>
        <time>2019-08-20T22:37:06Z</time>
      </trkpt>
      <trkpt lat="47.1953" lon="6.68457">
        <ele>916.8</ele>
        <time>2019-08-20T22:37:17Z</time>
      </trkpt>
      <trkpt lat="47.19511" lon="6.6839">
        <ele>940.9</ele>
        <time>2019-08-20T22:37:26Z</time>
      </trkpt>
      <trkpt lat="47.1952" lon="6.68327">
        <ele>942.4</ele>
        <time>2019-08-20T22:37:32Z</time>
      </trkpt>
      <trkpt lat="47.19529" lon="6.6826">
        <ele>942.5</ele>
        <time>2019-08-20T22:37:56Z</time>
      </trkpt>
      <trkpt lat="47.19542" lon="6.68249">
        <ele>944.1</ele>
        <time>2019-08-20T22:38:03Z</time>
      </trkpt>
      <trkpt lat="47.19503" lon="6.68208">
        <ele>943.2</ele>
        <time>2019-08-20T22:38:30Z</time>
      </trkpt>
      <trkpt lat="47.19442" lon="6.68098">
        <ele>938.1</ele>
        <time>2019-08-20T22:38:36Z</time>
      </trkpt>
      <trkpt lat="47.19394" lon="6.67998">
        <ele>931.3</ele>
        <time>2019-08-20T22:38:55Z</time>
      </trkpt>
      <trkpt lat="47.19369" lon="6.6794">
        <ele>926.6</ele>
        <time>2019-08-20T22:39:01Z</time>
      </trkpt>
      <trkpt lat="47.19349" lon="6.67895">
        <ele>924.2</ele>
        <time>2019-08-20T22:39:09Z</time>
      </trkpt>
      <trkpt lat="47.19333" lon="6.67826">
        <ele>920.3</ele>
        <time>2019-08-20T22:39:28Z</time>
      </trkpt>
      <trkpt lat="47.19342" lon="6.67823">
        <ele>908.2</ele>
        <time>2019-08-20T22:39:31Z</time>
      </trkpt>
      <trkpt lat="47.19354" lon="6.6781">
        <ele>910.4</ele>
        <time>2019-08-20T22:39:35Z</time>
      </trkpt>
      <trkpt lat="47.19365" lon="6.67799">
        <ele>911.6</ele>
        <time>2019-08-20T22:39:37Z</time>
      </trkpt>
      <trkpt lat="47.19377" lon="6.67793">
        <ele>913.4</ele>
        <time>2019-08-20T22:39:41Z</time>
      </trkpt>
      <trkpt lat="47.19402" lon="6.67789">
        <ele>923.6</ele>
        <time>2019-08-20T22:39:48Z</time>
      </trkpt>
      <trkpt lat="47.19416" lon="6.67747">
        <ele>923.1</ele>
        <time>2019-08-20T22:39:56Z</time>
      </trkpt>
      <trkpt lat="47.19438" lon="6.67614">
        <ele>917.2</ele>
        <time>2019-08-20T22:40:02Z</time>
      </trkpt>
      <trkpt lat="47.19454" lon="6.67526">
        <ele>919</ele>
        <time>2019-08-20T22:40:04Z</time>
      </trkpt>
      <trkpt lat="47.1947" lon="6.67441">
        <ele>920.8</ele>
        <time>2019-08-20T22:40:20Z</time>
      </trkpt>
      <trkpt lat="47.19476" lon="6.6739">
        <ele>927</ele>
        <time>2019-08-20T22:40:24Z</time>
      </trkpt>
      <trkpt lat="47.1946" lon="6.67302">
        <ele>920.2</ele>
        <time>2019-08-20T22:40:29Z</time>
      </trkpt>
      <trkpt lat="47.19445" lon="6.67246">
        <ele>929.8</ele>
        <time>2019-08-20T22:40:31Z</time>
      </trkpt>
      <trkpt lat="47.1944" lon="6.67208">
        <ele>919.2</ele>
        <time>2019-08-20T22:40:38Z</time>
      </trkpt>
      <trkpt lat="47.19432" lon="6.67154">
        <ele>917.4</ele>
        <time>2019-08-20T22:40:47Z</time>
      </trkpt>
      <trkpt lat="47.19426" lon="6.67136">
        <ele>917</ele>
        <time>2019-08-20T22:40:54Z</time>
      </trkpt>
      <trkpt lat="47.19402" lon="6.67082">
        <ele>916</ele>
        <time>2019-08-20T22:41:09Z</time>
      </trkpt>
      <trkpt lat="47.19386" lon="6.67052">
        <ele>915.2</ele>
        <time>2019-08-20T22:41:28Z</time>
      </trkpt>
      <trkpt lat="47.19361" lon="6.6701">
        <ele>913.2</ele>
        <time>2019-08-20T22:41:37Z</time>
      </trkpt>
      <trkpt lat="47.19335" lon="6.66965">
        <ele>911.6</ele>
        <time>2019-08-20T22:41:45Z</time>
      </trkpt>
      <trkpt lat="47.19311" lon="6.66912">
        <ele>909</ele>
        <time>2019-08-20T22:42:03Z</time>
      </trkpt>
      <trkpt lat="47.19275" lon="6.66849">
        <ele>903.2</ele>
        <time>2019-08-20T22:42:15Z</time>
      </trkpt>
      <trkpt lat="47.19249" lon="6.668">
        <ele>899.2</ele>
        <time>2019-08-20T22:42:25Z</time>
      </trkpt>
      <trkpt lat="47.19218" lon="6.66745">
        <ele>895.6</ele>
        <time>2019-08-20T22:43:02Z</time>
      </trkpt>
      <trkpt lat="47.19208" lon="6.6673">
        <ele>893.8</ele>
        <time>2019-08-20T22:43:17Z</time>
      </trkpt>
      <trkpt lat="47.19208" lon="6.66719">
        <ele>890.6</ele>
        <time>2019-08-20T22:43:25Z</time>
      </trkpt>
      <trkpt lat="47.19221" lon="6.66702">
        <ele>889.2</ele>
        <time>2019-08-20T22:43:42Z</time>
      </trkpt>
      <trkpt lat="47.19244" lon="6.66677">
        <ele>887.8</ele>
        <time>2019-08-20T22:43:46Z</time>
      </trkpt>
      <trkpt lat="47.19252" lon="6.66668">
        <ele>887.6</ele>
        <time>2019-08-20T22:43:52Z</time>
      </trkpt>
      <trkpt lat="47.19261" lon="6.66658">
        <ele>889</ele>
        <time>2019-08-20T22:44:04Z</time>
      </trkpt>
      <trkpt lat="47.19275" lon="6.66635">
        <ele>892.6</ele>
        <time>2019-08-20T22:44:16Z</time>
      </trkpt>
      <trkpt lat="47.19286" lon="6.6663">
        <ele>897.4</ele>
        <time>2019-08-20T22:44:25Z</time>
      </trkpt>
      <trkpt lat="47.1929" lon="6.66613">
        <ele>902.4</ele>
        <time>2019-08-20T22:44:35Z</time>
      </trkpt>
      <trkpt lat="47.19299" lon="6.66597">
        <ele>915</ele>
        <time>2019-08-20T22:44:47Z</time>
      </trkpt>
      <trkpt lat="47.19304" lon="6.66588">
        <ele>923.2</ele>
        <time>2019-08-20T22:44:58Z</time>
      </trkpt>
      <trkpt lat="47.19298" lon="6.66571">
        <ele>925.5</ele>
        <time>2019-08-20T22:45:21Z</time>
      </trkpt>
      <trkpt lat="47.19288" lon="6.66543">
        <ele>924.6</ele>
        <time>2019-08-20T22:45:48Z</time>
      </trkpt>
      <trkpt lat="47.19296" lon="6.66525">
        <ele>925.7</ele>
        <time>2019-08-20T22:46:33Z</time>
      </trkpt>
      <trkpt lat="47.19317" lon="6.66563">
        <ele>926</ele>
        <time>2019-08-20T22:46:52Z</time>
      </trkpt>
      <trkpt lat="47.19342" lon="6.66575">
        <ele>926.2</ele>
        <time>2019-08-20T22:47:17Z</time>
      </trkpt>
      <trkpt lat="47.19349" lon="6.66578">
        <ele>926</ele>
        <time>2019-08-20T22:47:30Z</time>
      </trkpt>
      <trkpt lat="47.1937" lon="6.6661">
        <ele>925.4</ele>
        <time>2019-08-20T22:47:54Z</time>
      </trkpt>
      <trkpt lat="47.19379" lon="6.66637">
        <ele>925.2</ele>
        <time>2019-08-20T22:48:02Z</time>
      </trkpt>
      <trkpt lat="47.19376" lon="6.66648">
        <ele>926</ele>
        <time>2019-08-20T22:48:12Z</time>
      </trkpt>
      <trkpt lat="47.19372" lon="6.66661">
        <ele>927.8</ele>
        <time>2019-08-20T22:48:29Z</time>
      </trkpt>
      <trkpt lat="47.19375" lon="6.66668">
        <ele>929.6</ele>
        <time>2019-08-20T22:48:48Z</time>
      </trkpt>
      <trkpt lat="47.19393" lon="6.66688">
        <ele>930.4</ele>
        <time>2019-08-20T22:48:53Z</time>
      </trkpt>
      <trkpt lat="47.19395" lon="6.66707">
        <ele>930</ele>
        <time>2019-08-20T22:49:19Z</time>
      </trkpt>
      <trkpt lat="47.19391" lon="6.6673">
        <ele>931</ele>
        <time>2019-08-20T22:49:43Z</time>
      </trkpt>
      <trkpt lat="47.19394" lon="6.66739">
        <ele>933.2</ele>
        <time>2019-08-20T22:50:41Z</time>
      </trkpt>
      <trkpt lat="47.19402" lon="6.66767">
        <ele>934.8</ele>
        <time>2019-08-20T22:51:02Z</time>
      </trkpt>
      <trkpt lat="47.19421" lon="6.66823">
        <ele>936.2</ele>
        <time>2019-08-20T22:51:09Z</time>
      </trkpt>
      <trkpt lat="47.19423" lon="6.66833">
        <ele>936.4</ele>
        <time>2019-08-20T22:51:40Z</time>
      </trkpt>
      <trkpt lat="47.19437" lon="6.66867">
        <ele>938.6</ele>
        <time>2019-08-20T22:52:38Z</time>
      </trkpt>
      <trkpt lat="47.19443" lon="6.66879">
        <ele>940.2</ele>
        <time>2019-08-20T22:52:44Z</time>
      </trkpt>
      <trkpt lat="47.19466" lon="6.66921">
        <ele>941.6</ele>
        <time>2019-08-20T22:52:57Z</time>
      </trkpt>
      <trkpt lat="47.19479" lon="6.66953">
        <ele>942.8</ele>
        <time>2019-08-20T22:53:06Z</time>
      </trkpt>
      <trkpt lat="47.19485" lon="6.66977">
        <ele>945.2</ele>
        <time>2019-08-20T22:56:20Z</time>
      </trkpt>
      <trkpt lat="47.19498" lon="6.67009">
        <ele>947.2</ele>
        <time>2019-08-20T22:56:28Z</time>
      </trkpt>
      <trkpt lat="47.19524" lon="6.67062">
        <ele>948.4</ele>
        <time>2019-08-20T22:56:47Z</time>
      </trkpt>
      <trkpt lat="47.19532" lon="6.67077">
        <ele>948.4</ele>
        <time>2019-08-20T22:57:15Z</time>
      </trkpt>
      <trkpt lat="47.1954" lon="6.671">
        <ele>946</ele>
        <time>2019-08-20T22:57:35Z</time>
      </trkpt>
      <trkpt lat="47.19557" lon="6.67139">
        <ele>948.4</ele>
        <time>2019-08-20T22:57:48Z</time>
      </trkpt>
      <trkpt lat="47.19575" lon="6.67177">
        <ele>950.4</ele>
        <time>2019-08-20T22:57:58Z</time>
      </trkpt>
      <trkpt lat="47.1959" lon="6.67202">
        <ele>952</ele>
        <time>2019-08-20T22:58:01Z</time>
      </trkpt>
      <trkpt lat="47.19616" lon="6.67247">
        <ele>952.6</ele>
        <time>2019-08-20T23:01:18Z</time>
      </trkpt>
      <trkpt lat="47.19631" lon="6.67277">
        <ele>953.2</ele>
        <time>2019-08-20T23:01:40Z</time>
      </trkpt>
      <trkpt lat="47.19647" lon="6.67313">
        <ele>954</ele>
        <time>2019-08-20T23:02:02Z</time>
      </trkpt>
      <trkpt lat="47.19657" lon="6.6734">
        <ele>955</ele>
        <time>2019-08-20T23:02:14Z</time>
      </trkpt>
      <trkpt lat="47.19669" lon="6.67365">
        <ele>956.4</ele>
        <time>2019-08-20T23:02:21Z</time>
      </trkpt>
      <trkpt lat="47.19691" lon="6.67412">
        <ele>958</ele>
        <time>2019-08-20T23:02:27Z</time>
      </trkpt>
      <trkpt lat="47.19705" lon="6.67438">
        <ele>959.4</ele>
        <time>2019-08-20T23:02:35Z</time>
      </trkpt>
      <trkpt lat="47.19733" lon="6.67487">
        <ele>958.2</ele>
        <time>2019-08-20T23:03:34Z</time>
      </trkpt>
      <trkpt lat="47.19738" lon="6.675">
        <ele>965.7</ele>
        <time>2019-08-20T23:03:43Z</time>
      </trkpt>
      <trkpt lat="47.19756" lon="6.67544">
        <ele>958</ele>
        <time>2019-08-20T23:04:06Z</time>
      </trkpt>
      <trkpt lat="47.19759" lon="6.67558">
        <ele>957.6</ele>
        <time>2019-08-20T23:04:18Z</time>
      </trkpt>
      <trkpt lat="47.19768" lon="6.67574">
        <ele>957.4</ele>
        <time>2019-08-20T23:04:32Z</time>
      </trkpt>
      <trkpt lat="47.19782" lon="6.67587">
        <ele>956.8</ele>
        <time>2019-08-20T23:04:50Z</time>
      </trkpt>
      <trkpt lat="47.19807" lon="6.67632">
        <ele>957.6</ele>
        <time>2019-08-20T23:04:53Z</time>
      </trkpt>
      <trkpt lat="47.19844" lon="6.67693">
        <ele>957.6</ele>
        <time>2019-08-20T23:05:47Z</time>
      </trkpt>
      <trkpt lat="47.19878" lon="6.67742">
        <ele>957.8</ele>
        <time>2019-08-20T23:05:54Z</time>
      </trkpt>
      <trkpt lat="47.199" lon="6.67778">
        <ele>957</ele>
        <time>2019-08-20T23:06:10Z</time>
      </trkpt>
      <trkpt lat="47.19906" lon="6.67789">
        <ele>961</ele>
        <time>2019-08-20T23:06:20Z</time>
      </trkpt>
      <trkpt lat="47.19926" lon="6.67811">
        <ele>962.9</ele>
        <time>2019-08-20T23:06:42Z</time>
      </trkpt>
      <trkpt lat="47.19952" lon="6.67849">
        <ele>954.6</ele>
        <time>2019-08-20T23:07:13Z</time>
      </trkpt>
      <trkpt lat="47.19972" lon="6.67886">
        <ele>954</ele>
        <time>2019-08-20T23:07:53Z</time>
      </trkpt>
      <trkpt lat="47.1999" lon="6.67918">
        <ele>954.4</ele>
        <time>2019-08-20T23:08:03Z</time>
      </trkpt>
      <trkpt lat="47.2001" lon="6.67953">
        <ele>956</ele>
        <time>2019-08-20T23:08:10Z</time>
      </trkpt>
      <trkpt lat="47.20031" lon="6.67986">
        <ele>954.8</ele>
        <time>2019-08-20T23:08:22Z</time>
      </trkpt>
      <trkpt lat="47.20042" lon="6.67994">
        <ele>954.4</ele>
        <time>2019-08-20T23:08:29Z</time>
      </trkpt>
      <trkpt lat="47.20055" lon="6.68015">
        <ele>954.2</ele>
        <time>2019-08-20T23:08:47Z</time>
      </trkpt>
      <trkpt lat="47.20069" lon="6.68031">
        <ele>954</ele>
        <time>2019-08-20T23:09:05Z</time>
      </trkpt>
      <trkpt lat="47.20082" lon="6.6804">
        <ele>954</ele>
        <time>2019-08-20T23:09:14Z</time>
      </trkpt>
      <trkpt lat="47.20102" lon="6.68068">
        <ele>953.2</ele>
        <time>2019-08-20T23:09:18Z</time>
      </trkpt>
      <trkpt lat="47.20107" lon="6.68075">
        <ele>952.4</ele>
        <time>2019-08-20T23:09:27Z</time>
      </trkpt>
      <trkpt lat="47.20112" lon="6.6806">
        <ele>952</ele>
        <time>2019-08-20T23:09:34Z</time>
      </trkpt>
      <trkpt lat="47.20116" lon="6.68037">
        <ele>948.6</ele>
        <time>2019-08-20T23:09:42Z</time>
      </trkpt>
      <trkpt lat="47.20128" lon="6.68007">
        <ele>941.4</ele>
        <time>2019-08-20T23:09:56Z</time>
      </trkpt>
      <trkpt lat="47.20135" lon="6.67989">
        <ele>937.4</ele>
        <time>2019-08-20T23:10:05Z</time>
      </trkpt>
      <trkpt lat="47.20146" lon="6.67979">
        <ele>930.4</ele>
        <time>2019-08-20T23:10:16Z</time>
      </trkpt>
      <trkpt lat="47.20146" lon="6.67979">
        <ele>930</ele>
        <time>2019-08-20T23:10:24Z</time>
      </trkpt>
      <trkpt lat="47.20146" lon="6.67979">
        <ele>929.8</ele>
        <time>2019-08-20T23:10:40Z</time>
      </trkpt>
      <trkpt lat="47.20146" lon="6.6798">
        <ele>929.6</ele>
        <time>2019-08-20T23:10:43Z</time>
      </trkpt>
      <trkpt lat="47.20146" lon="6.67979">
        <ele>929.8</ele>
        <time>2019-08-20T23:10:49Z</time>
      </trkpt>
      <trkpt lat="47.20147" lon="6.67979">
        <ele>929.6</ele>
        <time>2019-08-20T23:10:54Z</time>
      </trkpt>
      <trkpt lat="47.20147" lon="6.67979">
        <ele>929.6</ele>
        <time>2019-08-20T23:11:11Z</time>
      </trkpt>
      <trkpt lat="47.20146" lon="6.67979">
        <ele>929.8</ele>
        <time>2019-08-20T23:11:23Z</time>
      </trkpt>
      <trkpt lat="47.20137" lon="6.68005">
        <ele>935.6</ele>
        <time>2019-08-20T23:11:33Z</time>
      </trkpt>
      <trkpt lat="47.20132" lon="6.68023">
        <ele>939.6</ele>
        <time>2019-08-20T23:11:38Z</time>
      </trkpt>
      <trkpt lat="47.20131" lon="6.6805">
        <ele>943.2</ele>
        <time>2019-08-20T23:11:42Z</time>
      </trkpt>
      <trkpt lat="47.20127" lon="6.68084">
        <ele>950.4</ele>
        <time>2019-08-20T23:11:53Z</time>
      </trkpt>
      <trkpt lat="47.20139" lon="6.68103">
        <ele>954.4</ele>
        <time>2019-08-20T23:11:58Z</time>
      </trkpt>
      <trkpt lat="47.20148" lon="6.68123">
        <ele>957.6</ele>
        <time>2019-08-20T23:12:21Z</time>
      </trkpt>
      <trkpt lat="47.20158" lon="6.68152">
        <ele>961.4</ele>
        <time>2019-08-20T23:13:24Z</time>
      </trkpt>
      <trkpt lat="47.20165" lon="6.68178">
        <ele>961.2</ele>
        <time>2019-08-20T23:13:37Z</time>
      </trkpt>
      <trkpt lat="47.20174" lon="6.6821">
        <ele>961</ele>
        <time>2019-08-20T23:13:53Z</time>
      </trkpt>
      <trkpt lat="47.2019" lon="6.68255">
        <ele>960.8</ele>
        <time>2019-08-20T23:14:35Z</time>
      </trkpt>
      <trkpt lat="47.20197" lon="6.68272">
        <ele>960.8</ele>
        <time>2019-08-20T23:14:41Z</time>
      </trkpt>
      <trkpt lat="47.20218" lon="6.6831">
        <ele>960.8</ele>
        <time>2019-08-20T23:16:04Z</time>
      </trkpt>
      <trkpt lat="47.20233" lon="6.68341">
        <ele>960.8</ele>
        <time>2019-08-20T23:16:34Z</time>
      </trkpt>
      <trkpt lat="47.20248" lon="6.68374">
        <ele>963.9</ele>
        <time>2019-08-20T23:16:44Z</time>
      </trkpt>
      <trkpt lat="47.20265" lon="6.68395">
        <ele>967.1</ele>
        <time>2019-08-20T23:17:02Z</time>
      </trkpt>
      <trkpt lat="47.20286" lon="6.68415">
        <ele>957.8</ele>
        <time>2019-08-20T23:17:16Z</time>
      </trkpt>
      <trkpt lat="47.20296" lon="6.68436">
        <ele>957.4</ele>
        <time>2019-08-20T23:17:27Z</time>
      </trkpt>
      <trkpt lat="47.20316" lon="6.68473">
        <ele>955.6</ele>
        <time>2019-08-20T23:17:56Z</time>
      </trkpt>
      <trkpt lat="47.2033" lon="6.685">
        <ele>954.2</ele>
        <time>2019-08-20T23:18:02Z</time>
      </trkpt>
      <trkpt lat="47.20339" lon="6.68512">
        <ele>952</ele>
        <time>2019-08-20T23:18:10Z</time>
      </trkpt>
      <trkpt lat="47.20359" lon="6.68536">
        <ele>949.8</ele>
        <time>2019-08-20T23:18:26Z</time>
      </trkpt>
      <trkpt lat="47.20368" lon="6.68551">
        <ele>948.8</ele>
        <time>2019-08-20T23:18:50Z</time>
      </trkpt>
      <trkpt lat="47.20381" lon="6.68586">
        <ele>947</ele>
        <time>2019-08-20T23:18:58Z</time>
      </trkpt>
      <trkpt lat="47.20391" lon="6.68614">
        <ele>944.8</ele>
        <time>2019-08-20T23:19:20Z</time>
      </trkpt>
      <trkpt lat="47.20408" lon="6.68664">
        <ele>943</ele>
        <time>2019-08-20T23:19:31Z</time>
      </trkpt>
      <trkpt lat="47.2041" lon="6.6868">
        <ele>942.8</ele>
        <time>2019-08-20T23:20:02Z</time>
      </trkpt>
      <trkpt lat="47.20409" lon="6.68705">
        <ele>940</ele>
        <time>2019-08-20T23:20:24Z</time>
      </trkpt>
      <trkpt lat="47.20397" lon="6.68721">
        <ele>946.8</ele>
        <time>2019-08-20T23:20:37Z</time>
      </trkpt>
      <trkpt lat="47.20397" lon="6.68764">
        <ele>945.7</ele>
        <time>2019-08-20T23:20:51Z</time>
      </trkpt>
      <trkpt lat="47.20402" lon="6.6878">
        <ele>945.3</ele>
        <time>2019-08-20T23:21:11Z</time>
      </trkpt>
      <trkpt lat="47.20404" lon="6.68802">
        <ele>945.2</ele>
        <time>2019-08-20T23:21:32Z</time>
      </trkpt>
      <trkpt lat="47.20415" lon="6.68851">
        <ele>945.7</ele>
        <time>2019-08-20T23:21:51Z</time>
      </trkpt>
      <trkpt lat="47.2043" lon="6.68879">
        <ele>949.6</ele>
        <time>2019-08-20T23:21:58Z</time>
      </trkpt>
      <trkpt lat="47.20448" lon="6.68921">
        <ele>947.6</ele>
        <time>2019-08-20T23:22:14Z</time>
      </trkpt>
      <trkpt lat="47.20466" lon="6.68959">
        <ele>948.7</ele>
        <time>2019-08-20T23:22:26Z</time>
      </trkpt>
      <trkpt lat="47.20476" lon="6.68984">
        <ele>949.7</ele>
        <time>2019-08-20T23:22:43Z</time>
      </trkpt>
      <trkpt lat="47.20487" lon="6.69022">
        <ele>946.9</ele>
        <time>2019-08-20T23:22:57Z</time>
      </trkpt>
      <trkpt lat="47.20501" lon="6.69047">
        <ele>949.5</ele>
        <time>2019-08-20T23:23:12Z</time>
      </trkpt>
      <trkpt lat="47.20525" lon="6.69119">
        <ele>946.8</ele>
        <time>2019-08-20T23:23:16Z</time>
      </trkpt>
      <trkpt lat="47.20544" lon="6.69173">
        <ele>944.9</ele>
        <time>2019-08-20T23:23:22Z</time>
      </trkpt>
      <trkpt lat="47.20565" lon="6.69212">
        <ele>945.1</ele>
        <time>2019-08-20T23:23:29Z</time>
      </trkpt>
      <trkpt lat="47.20582" lon="6.69246">
        <ele>947.2</ele>
        <time>2019-08-20T23:23:34Z</time>
      </trkpt>
      <trkpt lat="47.20612" lon="6.69318">
        <ele>928</ele>
        <time>2019-08-20T23:23:44Z</time>
      </trkpt>
      <trkpt lat="47.2063" lon="6.69359">
        <ele>927.6</ele>
        <time>2019-08-20T23:24:00Z</time>
      </trkpt>
      <trkpt lat="47.2068" lon="6.69432">
        <ele>927</ele>
        <time>2019-08-20T23:24:06Z</time>
      </trkpt>
      <trkpt lat="47.20695" lon="6.69452">
        <ele>927</ele>
        <time>2019-08-20T23:24:17Z</time>
      </trkpt>
      <trkpt lat="47.20709" lon="6.69467">
        <ele>927.2</ele>
        <time>2019-08-20T23:24:24Z</time>
      </trkpt>
      <trkpt lat="47.20754" lon="6.69528">
        <ele>936</ele>
        <time>2019-08-20T23:24:37Z</time>
      </trkpt>
      <trkpt lat="47.20766" lon="6.69521">
        <ele>935.7</ele>
        <time>2019-08-20T23:25:05Z</time>
      </trkpt>
      <trkpt lat="47.20777" lon="6.69524">
        <ele>922.2</ele>
        <time>2019-08-20T23:25:25Z</time>
      </trkpt>
      <trkpt lat="47.20787" lon="6.69548">
        <ele>921.4</ele>
        <time>2019-08-20T23:25:31Z</time>
      </trkpt>
      <trkpt lat="47.20796" lon="6.69582">
        <ele>921.2</ele>
        <time>2019-08-20T23:25:44Z</time>
      </trkpt>
      <trkpt lat="47.20806" lon="6.69623">
        <ele>920.6</ele>
        <time>2019-08-20T23:26:02Z</time>
      </trkpt>
      <trkpt lat="47.20809" lon="6.69639">
        <ele>917.8</ele>
        <time>2019-08-20T23:26:41Z</time>
      </trkpt>
      <trkpt lat="47.20803" lon="6.69656">
        <ele>915</ele>
        <time>2019-08-20T23:27:02Z</time>
      </trkpt>
      <trkpt lat="47.208" lon="6.69673">
        <ele>915.6</ele>
        <time>2019-08-20T23:27:14Z</time>
      </trkpt>
      <trkpt lat="47.20796" lon="6.697">
        <ele>919.8</ele>
        <time>2019-08-20T23:27:30Z</time>
      </trkpt>
      <trkpt lat="47.20795" lon="6.69731">
        <ele>923.2</ele>
        <time>2019-08-20T23:28:21Z</time>
      </trkpt>
      <trkpt lat="47.20802" lon="6.69766">
        <ele>926.8</ele>
        <time>2019-08-20T23:29:01Z</time>
      </trkpt>
      <trkpt lat="47.20809" lon="6.69803">
        <ele>927.8</ele>
        <time>2019-08-20T23:29:50Z</time>
      </trkpt>
      <trkpt lat="47.20822" lon="6.69868">
        <ele>929.4</ele>
        <time>2019-08-20T23:30:05Z</time>
      </trkpt>
      <trkpt lat="47.20844" lon="6.69931">
        <ele>931.4</ele>
        <time>2019-08-20T23:30:48Z</time>
      </trkpt>
      <trkpt lat="47.20852" lon="6.69958">
        <ele>931.6</ele>
        <time>2019-08-20T23:31:12Z</time>
      </trkpt>
      <trkpt lat="47.20864" lon="6.70008">
        <ele>932</ele>
        <time>2019-08-20T23:31:35Z</time>
      </trkpt>
      <trkpt lat="47.20895" lon="6.70073">
        <ele>932.2</ele>
        <time>2019-08-20T23:31:50Z</time>
      </trkpt>
      <trkpt lat="47.20918" lon="6.70099">
        <ele>929</ele>
        <time>2019-08-20T23:32:05Z</time>
      </trkpt>
      <trkpt lat="47.20935" lon="6.70128">
        <ele>925.2</ele>
        <time>2019-08-20T23:32:22Z</time>
      </trkpt>
      <trkpt lat="47.20981" lon="6.70199">
        <ele>919.9</ele>
        <time>2019-08-20T23:32:27Z</time>
      </trkpt>
      <trkpt lat="47.21007" lon="6.70227">
        <ele>920.8</ele>
        <time>2019-08-20T23:32:45Z</time>
      </trkpt>
      <trkpt lat="47.21024" lon="6.70235">
        <ele>923</ele>
        <time>2019-08-20T23:32:53Z</time>
      </trkpt>
      <trkpt lat="47.21048" lon="6.70258">
        <ele>922</ele>
        <time>2019-08-20T23:33:00Z</time>
      </trkpt>
      <trkpt lat="47.21072" lon="6.70293">
        <ele>920.4</ele>
        <time>2019-08-20T23:33:03Z</time>
      </trkpt>
      <trkpt lat="47.21106" lon="6.70345">
        <ele>914.6</ele>
        <time>2019-08-20T23:33:12Z</time>
      </trkpt>
      <trkpt lat="47.21141" lon="6.70391">
        <ele>908</ele>
        <time>2019-08-20T23:33:25Z</time>
      </trkpt>
      <trkpt lat="47.21185" lon="6.70456">
        <ele>901.8</ele>
        <time>2019-08-20T23:33:36Z</time>
      </trkpt>
      <trkpt lat="47.21209" lon="6.70488">
        <ele>897.8</ele>
        <time>2019-08-20T23:33:47Z</time>
      </trkpt>
      <trkpt lat="47.21233" lon="6.70512">
        <ele>894.4</ele>
        <time>2019-08-20T23:33:53Z</time>
      </trkpt>
      <trkpt lat="47.21263" lon="6.70534">
        <ele>891.4</ele>
        <time>2019-08-20T23:34:05Z</time>
      </trkpt>
      <trkpt lat="47.21293" lon="6.70562">
        <ele>888.8</ele>
        <time>2019-08-20T23:34:31Z</time>
      </trkpt>
      <trkpt lat="47.21318" lon="6.70594">
        <ele>888.2</ele>
        <time>2019-08-20T23:34:48Z</time>
      </trkpt>
      <trkpt lat="47.21335" lon="6.70617">
        <ele>887</ele>
        <time>2019-08-20T23:34:54Z</time>
      </trkpt>
      <trkpt lat="47.21353" lon="6.70644">
        <ele>886.4</ele>
        <time>2019-08-20T23:35:01Z</time>
      </trkpt>
      <trkpt lat="47.21366" lon="6.70664">
        <ele>885.8</ele>
        <time>2019-08-20T23:35:17Z</time>
      </trkpt>
      <trkpt lat="47.21391" lon="6.70702">
        <ele>883.8</ele>
        <time>2019-08-20T23:35:24Z</time>
      </trkpt>
      <trkpt lat="47.2141" lon="6.70729">
        <ele>881.4</ele>
        <time>2019-08-20T23:35:37Z</time>
      </trkpt>
      <trkpt lat="47.21419" lon="6.70743">
        <ele>880</ele>
        <time>2019-08-20T23:36:00Z</time>
      </trkpt>
      <trkpt lat="47.2142" lon="6.7075">
        <ele>879.8</ele>
        <time>2019-08-20T23:36:14Z</time>
      </trkpt>
      <trkpt lat="47.21413" lon="6.70747">
        <ele>877.4</ele>
        <time>2019-08-20T23:36:16Z</time>
      </trkpt>
      <trkpt lat="47.21394" lon="6.70731">
        <ele>876.6</ele>
        <time>2019-08-20T23:36:22Z</time>
      </trkpt>
      <trkpt lat="47.21369" lon="6.70714">
        <ele>875.2</ele>
        <time>2019-08-20T23:36:24Z</time>
      </trkpt>
      <trkpt lat="47.21323" lon="6.70683">
        <ele>871.5</ele>
        <time>2019-08-20T23:36:29Z</time>
      </trkpt>
      <trkpt lat="47.21276" lon="6.70657">
        <ele>874.3</ele>
        <time>2019-08-20T23:38:00Z</time>
      </trkpt>
      <trkpt lat="47.21225" lon="6.70629">
        <ele>865.2</ele>
        <time>2019-08-20T23:38:12Z</time>
      </trkpt>
      <trkpt lat="47.21195" lon="6.70616">
        <ele>863.3</ele>
        <time>2019-08-20T23:38:36Z</time>
      </trkpt>
      <trkpt lat="47.21155" lon="6.70608">
        <ele>852.9</ele>
        <time>2019-08-20T23:38:42Z</time>
      </trkpt>
      <trkpt lat="47.21125" lon="6.70606">
        <ele>836.8</ele>
        <time>2019-08-20T23:38:52Z</time>
      </trkpt>
      <trkpt lat="47.21089" lon="6.70601">
        <ele>847.6</ele>
        <time>2019-08-20T23:39:00Z</time>
      </trkpt>
      <trkpt lat="47.21073" lon="6.70615">
        <ele>852.3</ele>
        <time>2019-08-20T23:39:09Z</time>
      </trkpt>
      <trkpt lat="47.21064" lon="6.7062">
        <ele>853.3</ele>
        <time>2019-08-20T23:39:34Z</time>
      </trkpt>
      <trkpt lat="47.21083" lon="6.70648">
        <ele>850.2</ele>
        <time>2019-08-20T23:40:02Z</time>
      </trkpt>
      <trkpt lat="47.21113" lon="6.70692">
        <ele>845</ele>
        <time>2019-08-20T23:40:35Z</time>
      </trkpt>
      <trkpt lat="47.21142" lon="6.70728">
        <ele>842.5</ele>
        <time>2019-08-20T23:41:22Z</time>
      </trkpt>
      <trkpt lat="47.21168" lon="6.70759">
        <ele>833.4</ele>
        <time>2019-08-20T23:41:40Z</time>
      </trkpt>
      <trkpt lat="47.21209" lon="6.70804">
        <ele>832.7</ele>
        <time>2019-08-20T23:41:45Z</time>
      </trkpt>
      <trkpt lat="47.21252" lon="6.70847">
        <ele>806.6</ele>
        <time>2019-08-20T23:42:19Z</time>
      </trkpt>
      <trkpt lat="47.21269" lon="6.70869">
        <ele>804</ele>
        <time>2019-08-20T23:42:28Z</time>
      </trkpt>
      <trkpt lat="47.21322" lon="6.70937">
        <ele>798.8</ele>
        <time>2019-08-20T23:42:46Z</time>
      </trkpt>
      <trkpt lat="47.21369" lon="6.71001">
        <ele>785</ele>
        <time>2019-08-20T23:43:02Z</time>
      </trkpt>
      <trkpt lat="47.21369" lon="6.71001">
        <ele>784.8</ele>
        <time>2019-08-20T23:46:05Z</time>
      </trkpt>
      <trkpt lat="47.21369" lon="6.71002">
        <ele>784.4</ele>
        <time>2019-08-20T23:46:57Z</time>
      </trkpt>
      <trkpt lat="47.21366" lon="6.71003">
        <ele>784.4</ele>
        <time>2019-08-20T23:47:04Z</time>
      </trkpt>
      <trkpt lat="47.21366" lon="6.71003">
        <ele>784.4</ele>
        <time>2019-08-20T23:47:50Z</time>
      </trkpt>
      <trkpt lat="47.21366" lon="6.71003">
        <ele>784.4</ele>
        <time>2019-08-20T23:48:00Z</time>
      </trkpt>
      <trkpt lat="47.21366" lon="6.71003">
        <ele>784.4</ele>
        <time>2019-08-20T23:48:51Z</time>
      </trkpt>
      <trkpt lat="47.21366" lon="6.71003">
        <ele>784.6</ele>
        <time>2019-08-20T23:49:05Z</time>
      </trkpt>
      <trkpt lat="47.21366" lon="6.71004">
        <ele>784.6</ele>
        <time>2019-08-20T23:49:19Z</time>
      </trkpt>
      <trkpt lat="47.21366" lon="6.71004">
        <ele>784.6</ele>
        <time>2019-08-20T23:49:30Z</time>
      </trkpt>
      <trkpt lat="47.21366" lon="6.71004">
        <ele>784.2</ele>
        <time>2019-08-20T23:49:59Z</time>
      </trkpt>
      <trkpt lat="47.21366" lon="6.71004">
        <ele>784.2</ele>
        <time>2019-08-20T23:50:10Z</time>
      </trkpt>
      <trkpt lat="47.21366" lon="6.71004">
        <ele>784.4</ele>
        <time>2019-08-20T23:50:24Z</time>
      </trkpt>
      <trkpt lat="47.21366" lon="6.71005">
        <ele>784.4</ele>
        <time>2019-08-20T23:50:38Z</time>
      </trkpt>
      <trkpt lat="47.21366" lon="6.71005">
        <ele>784.4</ele>
        <time>2019-08-20T23:50:44Z</time>
      </trkpt>
      <trkpt lat="47.21366" lon="6.71005">
        <ele>784.6</ele>
        <time>2019-08-20T23:51:55Z</time>
      </trkpt>
      <trkpt lat="47.21366" lon="6.71006">
        <ele>784.8</ele>
        <time>2019-08-20T23:52:51Z</time>
      </trkpt>
      <trkpt lat="47.21366" lon="6.71006">
        <ele>784.6</ele>
        <time>2019-08-20T23:53:18Z</time>
      </trkpt>
      <trkpt lat="47.21366" lon="6.71006">
        <ele>784.6</ele>
        <time>2019-08-20T23:53:29Z</time>
      </trkpt>
      <trkpt lat="47.21366" lon="6.71005">
        <ele>784.6</ele>
        <time>2019-08-20T23:55:03Z</time>
      </trkpt>
      <trkpt lat="47.21366" lon="6.71005">
        <ele>784.6</ele>
        <time>2019-08-20T23:55:58Z</time>
      </trkpt>
      <trkpt lat="47.21366" lon="6.71005">
        <ele>784.6</ele>
        <time>2019-08-20T23:56:13Z</time>
      </trkpt>
      <trkpt lat="47.21365" lon="6.71005">
        <ele>813.2</ele>
        <time>2019-08-20T23:56:33Z</time>
      </trkpt>
      <trkpt lat="47.21365" lon="6.71005">
        <ele>784.6</ele>
        <time>2019-08-20T23:56:39Z</time>
      </trkpt>
      <trkpt lat="47.21365" lon="6.71005">
        <ele>784.6</ele>
        <time>2019-08-20T23:56:44Z</time>
      </trkpt>
      <trkpt lat="47.21366" lon="6.71005">
        <ele>784.8</ele>
        <time>2019-08-20T23:57:00Z</time>
      </trkpt>
      <trkpt lat="47.21366" lon="6.71005">
        <ele>784.6</ele>
        <time>2019-08-20T23:57:10Z</time>
      </trkpt>
      <trkpt lat="47.21365" lon="6.71006">
        <ele>813.2</ele>
        <time>2019-08-20T23:57:21Z</time>
      </trkpt>
      <trkpt lat="47.21365" lon="6.71006">
        <ele>813</ele>
        <time>2019-08-20T23:57:50Z</time>
      </trkpt>
      <trkpt lat="47.21366" lon="6.71006">
        <ele>784.8</ele>
        <time>2019-08-20T23:57:58Z</time>
      </trkpt>
      <trkpt lat="47.21366" lon="6.71006">
        <ele>784.6</ele>
        <time>2019-08-20T23:58:12Z</time>
      </trkpt>
      <trkpt lat="47.21366" lon="6.71006">
        <ele>784.6</ele>
        <time>2019-08-20T23:58:24Z</time>
      </trkpt>
      <trkpt lat="47.21366" lon="6.71006">
        <ele>784.6</ele>
        <time>2019-08-20T23:58:34Z</time>
      </trkpt>
      <trkpt lat="47.21366" lon="6.71009">
        <ele>784.4</ele>
        <time>2019-08-20T23:58:46Z</time>
      </trkpt>
      <trkpt lat="47.21365" lon="6.71009">
        <ele>784.6</ele>
        <time>2019-08-20T23:58:52Z</time>
      </trkpt>
      <trkpt lat="47.21365" lon="6.7101">
        <ele>784.6</ele>
        <time>2019-08-20T23:59:09Z</time>
      </trkpt>
      <trkpt lat="47.21367" lon="6.7101">
        <ele>785</ele>
        <time>2019-08-20T23:59:15Z</time>
      </trkpt>
      <trkpt lat="47.21367" lon="6.7101">
        <ele>784.8</ele>
        <time>2019-08-20T23:59:28Z</time>
      </trkpt>
      <trkpt lat="47.21371" lon="6.71006">
        <ele>784.6</ele>
        <time>2019-08-20T23:59:41Z</time>
      </trkpt>
      <trkpt lat="47.21371" lon="6.71006">
        <ele>784.8</ele>
        <time>2019-08-20T23:59:53Z</time>
      </trkpt>
      <trkpt lat="47.21371" lon="6.71004">
        <ele>785</ele>
        <time>2019-08-21T00:00:12Z</time>
      </trkpt>
      <trkpt lat="47.21371" lon="6.71005">
        <ele>785.2</ele>
        <time>2019-08-21T00:00:35Z</time>
      </trkpt>
      <trkpt lat="47.2137" lon="6.71006">
        <ele>785.4</ele>
        <time>2019-08-21T00:00:48Z</time>
      </trkpt>
      <trkpt lat="47.2137" lon="6.71006">
        <ele>785.4</ele>
        <time>2019-08-21T00:00:55Z</time>
      </trkpt>
      <trkpt lat="47.21401" lon="6.71093">
        <ele>812.2</ele>
        <time>2019-08-21T00:01:11Z</time>
      </trkpt>
      <trkpt lat="47.21419" lon="6.71143">
        <ele>785.8</ele>
        <time>2019-08-21T00:01:19Z</time>
      </trkpt>
      <trkpt lat="47.21451" lon="6.71233">
        <ele>805.8</ele>
        <time>2019-08-21T00:01:31Z</time>
      </trkpt>
      <trkpt lat="47.21478" lon="6.7131">
        <ele>807.9</ele>
        <time>2019-08-21T00:02:00Z</time>
      </trkpt>
      <trkpt lat="47.21506" lon="6.71377">
        <ele>793.5</ele>
        <time>2019-08-21T00:02:31Z</time>
      </trkpt>
      <trkpt lat="47.21538" lon="6.7146">
        <ele>796</ele>
        <time>2019-08-21T00:02:43Z</time>
      </trkpt>
      <trkpt lat="47.21553" lon="6.71502">
        <ele>797.2</ele>
        <time>2019-08-21T00:03:01Z</time>
      </trkpt>
      <trkpt lat="47.21576" lon="6.71567">
        <ele>799</ele>
        <time>2019-08-21T00:03:26Z</time>
      </trkpt>
      <trkpt lat="47.21586" lon="6.71588">
        <ele>800</ele>
        <time>2019-08-21T00:03:37Z</time>
      </trkpt>
      <trkpt lat="47.21602" lon="6.7163">
        <ele>801</ele>
        <time>2019-08-21T00:04:17Z</time>
      </trkpt>
      <trkpt lat="47.21614" lon="6.71666">
        <ele>801.6</ele>
        <time>2019-08-21T00:04:59Z</time>
      </trkpt>
      <trkpt lat="47.21628" lon="6.71694">
        <ele>802.2</ele>
        <time>2019-08-21T00:05:13Z</time>
      </trkpt>
      <trkpt lat="47.21655" lon="6.71735">
        <ele>803.4</ele>
        <time>2019-08-21T00:05:32Z</time>
      </trkpt>
      <trkpt lat="47.21683" lon="6.71778">
        <ele>804.8</ele>
        <time>2019-08-21T00:05:57Z</time>
      </trkpt>
      <trkpt lat="47.21723" lon="6.71847">
        <ele>807.4</ele>
        <time>2019-08-21T00:06:20Z</time>
      </trkpt>
      <trkpt lat="47.21723" lon="6.71847">
        <ele>807.2</ele>
        <time>2019-08-21T00:06:28Z</time>
      </trkpt>
      <trkpt lat="47.21723" lon="6.71847">
        <ele>807.4</ele>
        <time>2019-08-21T00:06:52Z</time>
      </trkpt>
      <trkpt lat="47.21723" lon="6.71847">
        <ele>807.4</ele>
        <time>2019-08-21T00:07:12Z</time>
      </trkpt>
      <trkpt lat="47.21723" lon="6.71847">
        <ele>807.4</ele>
        <time>2019-08-21T00:07:17Z</time>
      </trkpt>
      <trkpt lat="47.21723" lon="6.71847">
        <ele>807.4</ele>
        <time>2019-08-21T00:07:24Z</time>
      </trkpt>
      <trkpt lat="47.21723" lon="6.71847">
        <ele>807</ele>
        <time>2019-08-21T00:07:49Z</time>
      </trkpt>
      <trkpt lat="47.21723" lon="6.71847">
        <ele>807</ele>
        <time>2019-08-21T00:07:51Z</time>
      </trkpt>
      <trkpt lat="47.21723" lon="6.71847">
        <ele>807</ele>
        <time>2019-08-21T00:08:03Z</time>
      </trkpt>
      <trkpt lat="47.21723" lon="6.71847">
        <ele>807.2</ele>
      </trkpt>
      <trkpt lat="47.21724" lon="6.71847">
        <ele>807.2</ele>
      </trkpt>
      <trkpt lat="47.21724" lon="6.71847">
        <ele>807.4</ele>
      </trkpt>
      <trkpt lat="47.21724" lon="6.71847">
        <ele>807</ele>
      </trkpt>
      <trkpt lat="47.21724" lon="6.71847">
        <ele>807.2</ele>
      </trkpt>
      <trkpt lat="47.21724" lon="6.71847">
        <ele>807</ele>
      </trkpt>
      <trkpt lat="47.21724" lon="6.71847">
        <ele>807.2</ele>
      </trkpt>
      <trkpt lat="47.21724" lon="6.71847">
        <ele>807.2</ele>
      </trkpt>
      <trkpt lat="47.21724" lon="6.71847">
        <ele>807.4</ele>
      </trkpt>
      <trkpt lat="47.21724" lon="6.71847">
        <ele>807.4</ele>
      </trkpt>
      <trkpt lat="47.21724" lon="6.71847">
        <ele>807.6</ele>
      </trkpt>
      <trkpt lat="47.21724" lon="6.71847">
        <ele>807.4</ele>
      </trkpt>
      <trkpt lat="47.21724" lon="6.71847">
        <ele>807.6</ele>
      </trkpt>
      <trkpt lat="47.21725" lon="6.71847">
        <ele>807.4</ele>
      </trkpt>
      <trkpt lat="47.21726" lon="6.71863">
        <ele>819.4</ele>
      </trkpt>
      <trkpt lat="47.21728" lon="6.71885">
        <ele>823</ele>
      </trkpt>
      <trkpt lat="47.21747" lon="6.71915">
        <ele>819.9</ele>
      </trkpt>
      <trkpt lat="47.21761" lon="6.71967">
        <ele>814</ele>
      </trkpt>
      <trkpt lat="47.21798" lon="6.72045">
        <ele>823.4</ele>
      </trkpt>
      <trkpt lat="47.21801" lon="6.72074">
        <ele>825.5</ele>
      </trkpt>
      <trkpt lat="47.21801" lon="6.72111">
        <ele>835.1</ele>
      </trkpt>
      <trkpt lat="47.21794" lon="6.72143">
        <ele>837</ele>
      </trkpt>
      <trkpt lat="47.21793" lon="6.72172">
        <ele>814.2</ele>
      </trkpt>
      <trkpt lat="47.21799" lon="6.72216">
        <ele>838</ele>
      </trkpt>
      <trkpt lat="47.21778" lon="6.72256">
        <ele>833</ele>
      </trkpt>
      <trkpt lat="47.2175" lon="6.7229">
        <ele>817.8</ele>
      </trkpt>
      <trkpt lat="47.21722" lon="6.72332">
        <ele>818.8</ele>
      </trkpt>
      <trkpt lat="47.21688" lon="6.72349">
        <ele>819</ele>
      </trkpt>
      <trkpt lat="47.21665" lon="6.72353">
        <ele>819.2</ele>
      </trkpt>
      <trkpt lat="47.21648" lon="6.72362">
        <ele>819</ele>
      </trkpt>
      <trkpt lat="47.21617" lon="6.72397">
        <ele>825</ele>
      </trkpt>
      <trkpt lat="47.21593" lon="6.72439">
        <ele>821.2</ele>
      </trkpt>
      <trkpt lat="47.2157" lon="6.72477">
        <ele>827</ele>
      </trkpt>
      <trkpt lat="47.21525" lon="6.72513">
        <ele>822.8</ele>
      </trkpt>
      <trkpt lat="47.21484" lon="6.72561">
        <ele>825.6</ele>
      </trkpt>
      <trkpt lat="47.21455" lon="6.72598">
        <ele>828.6</ele>
      </trkpt>
      <trkpt lat="47.21443" lon="6.72656">
        <ele>834</ele>
      </trkpt>
      <trkpt lat="47.21436" lon="6.72682">
        <ele>838.2</ele>
      </trkpt>
      <trkpt lat="47.21412" lon="6.72698">
        <ele>859.1</ele>
      </trkpt>
      <trkpt lat="47.2138" lon="6.72675">
        <ele>851.6</ele>
      </trkpt>
      <trkpt lat="47.2135" lon="6.72652">
        <ele>856.2</ele>
      </trkpt>
      <trkpt lat="47.21338" lon="6.72643">
        <ele>859</ele>
      </trkpt>
      <trkpt lat="47.21323" lon="6.7265">
        <ele>860.2</ele>
      </trkpt>
      <trkpt lat="47.21291" lon="6.72693">
        <ele>863.4</ele>
      </trkpt>
      <trkpt lat="47.21284" lon="6.72723">
        <ele>866.2</ele>
      </trkpt>
      <trkpt lat="47.21305" lon="6.72791">
        <ele>867.8</ele>
      </trkpt>
      <trkpt lat="47.21312" lon="6.72848">
        <ele>864.4</ele>
      </trkpt>
      <trkpt lat="47.21317" lon="6.72965">
        <ele>862.8</ele>
      </trkpt>
      <trkpt lat="47.21325" lon="6.73078">
        <ele>865.4</ele>
      </trkpt>
      <trkpt lat="47.21334" lon="6.73162">
        <ele>868.2</ele>
      </trkpt>
      <trkpt lat="47.21325" lon="6.73293">
        <ele>870.4</ele>
      </trkpt>
      <trkpt lat="47.21325" lon="6.73381">
        <ele>876</ele>
      </trkpt>
      <trkpt lat="47.2134" lon="6.7346">
        <ele>871.6</ele>
      </trkpt>
      <trkpt lat="47.21342" lon="6.73482">
        <ele>874</ele>
      </trkpt>
      <trkpt lat="47.2133" lon="6.73504">
        <ele>871.4</ele>
      </trkpt>
      <trkpt lat="47.21307" lon="6.73516">
        <ele>870.8</ele>
      </trkpt>
      <trkpt lat="47.21268" lon="6.73535">
        <ele>868.6</ele>
      </trkpt>
      <trkpt lat="47.21192" lon="6.73588">
        <ele>865</ele>
      </trkpt>
      <trkpt lat="47.2117" lon="6.73614">
        <ele>864.6</ele>
      </trkpt>
      <trkpt lat="47.21149" lon="6.73655">
        <ele>878</ele>
      </trkpt>
      <trkpt lat="47.21141" lon="6.73704">
        <ele>864.6</ele>
      </trkpt>
      <trkpt lat="47.21132" lon="6.73748">
        <ele>878</ele>
      </trkpt>
      <trkpt lat="47.21112" lon="6.73793">
        <ele>865.4</ele>
      </trkpt>
      <trkpt lat="47.21106" lon="6.73811">
        <ele>865.6</ele>
      </trkpt>
      <trkpt lat="47.21102" lon="6.73834">
        <ele>884.6</ele>
      </trkpt>
      <trkpt lat="47.21106" lon="6.73864">
        <ele>885.9</ele>
      </trkpt>
      <trkpt lat="47.21142" lon="6.73984">
        <ele>889.5</ele>
      </trkpt>
      <trkpt lat="47.21165" lon="6.74072">
        <ele>889</ele>
      </trkpt>
      <trkpt lat="47.21162" lon="6.74118">
        <ele>873.8</ele>
      </trkpt>
      <trkpt lat="47.21156" lon="6.74236">
        <ele>873.6</ele>
      </trkpt>
      <trkpt lat="47.21145" lon="6.74303">
        <ele>882.9</ele>
      </trkpt>
      <trkpt lat="47.21124" lon="6.7434">
        <ele>884.6</ele>
      </trkpt>
      <trkpt lat="47.21104" lon="6.74354">
        <ele>885</ele>
      </trkpt>
      <trkpt lat="47.2106" lon="6.74364">
        <ele>876</ele>
      </trkpt>
      <trkpt lat="47.21019" lon="6.74376">
        <ele>878.4</ele>
      </trkpt>
      <trkpt lat="47.20979" lon="6.74381">
        <ele>894</ele>
      </trkpt>
      <trkpt lat="47.20902" lon="6.74398">
        <ele>899.1</ele>
      </trkpt>
      <trkpt lat="47.20865" lon="6.74403">
        <ele>900.2</ele>
      </trkpt>
      <trkpt lat="47.20816" lon="6.7442">
        <ele>908.7</ele>
      </trkpt>
      <trkpt lat="47.20777" lon="6.74439">
        <ele>910.1</ele>
      </trkpt>
      <trkpt lat="47.20734" lon="6.74463">
        <ele>913.3</ele>
      </trkpt>
      <trkpt lat="47.20689" lon="6.74484">
        <ele>915.9</ele>
      </trkpt>
      <trkpt lat="47.20659" lon="6.74483">
        <ele>903.8</ele>
      </trkpt>
      <trkpt lat="47.20634" lon="6.74478">
        <ele>924.3</ele>
      </trkpt>
      <trkpt lat="47.20645" lon="6.74508">
        <ele>928.9</ele>
      </trkpt>
      <trkpt lat="47.20672" lon="6.74547">
        <ele>928.8</ele>
      </trkpt>
      <trkpt lat="47.20704" lon="6.74571">
        <ele>930.7</ele>
      </trkpt>
      <trkpt lat="47.20702" lon="6.74579">
        <ele>916.2</ele>
      </trkpt>
      <trkpt lat="47.20703" lon="6.74586">
        <ele>917.8</ele>
      </trkpt>
      <trkpt lat="47.20661" lon="6.74634">
        <ele>923.8</ele>
      </trkpt>
      <trkpt lat="47.20642" lon="6.74653">
        <ele>926.8</ele>
      </trkpt>
      <trkpt lat="47.20621" lon="6.74672">
        <ele>929.4</ele>
      </trkpt>
      <trkpt lat="47.20651" lon="6.74699">
        <ele>934.6</ele>
      </trkpt>
      <trkpt lat="47.20677" lon="6.74703">
        <ele>938.8</ele>
      </trkpt>
      <trkpt lat="47.20699" lon="6.74696">
        <ele>940.6</ele>
      </trkpt>
      <trkpt lat="47.20729" lon="6.74679">
        <ele>942.4</ele>
      </trkpt>
      <trkpt lat="47.20755" lon="6.74669">
        <ele>943.8</ele>
      </trkpt>
      <trkpt lat="47.20773" lon="6.74661">
        <ele>945</ele>
      </trkpt>
      <trkpt lat="47.20796" lon="6.74656">
        <ele>947.4</ele>
      </trkpt>
      <trkpt lat="47.20811" lon="6.74661">
        <ele>949.4</ele>
      </trkpt>
      <trkpt lat="47.20825" lon="6.74663">
        <ele>950</ele>
      </trkpt>
      <trkpt lat="47.20843" lon="6.74676">
        <ele>951.2</ele>
      </trkpt>
      <trkpt lat="47.20867" lon="6.74685">
        <ele>953.4</ele>
      </trkpt>
      <trkpt lat="47.20877" lon="6.74701">
        <ele>953.8</ele>
      </trkpt>
      <trkpt lat="47.2089" lon="6.74703">
        <ele>953.8</ele>
      </trkpt>
      <trkpt lat="47.20912" lon="6.74726">
        <ele>955</ele>
      </trkpt>
      <trkpt lat="47.20931" lon="6.74759">
        <ele>955.6</ele>
      </trkpt>
      <trkpt lat="47.20943" lon="6.74787">
        <ele>955</ele>
      </trkpt>
      <trkpt lat="47.20951" lon="6.74814">
        <ele>954.8</ele>
      </trkpt>
      <trkpt lat="47.20976" lon="6.74863">
        <ele>951.6</ele>
      </trkpt>
      <trkpt lat="47.20982" lon="6.74881">
        <ele>950.6</ele>
      </trkpt>
      <trkpt lat="47.20986" lon="6.74899">
        <ele>950</ele>
      </trkpt>
      <trkpt lat="47.20993" lon="6.74917">
        <ele>949.6</ele>
      </trkpt>
      <trkpt lat="47.21001" lon="6.74947">
        <ele>949</ele>
      </trkpt>
      <trkpt lat="47.21019" lon="6.75008">
        <ele>947.6</ele>
      </trkpt>
      <trkpt lat="47.21033" lon="6.75026">
        <ele>947.6</ele>
      </trkpt>
      <trkpt lat="47.2105" lon="6.7506">
        <ele>947.8</ele>
      </trkpt>
      <trkpt lat="47.21069" lon="6.75109">
        <ele>948.2</ele>
      </trkpt>
      <trkpt lat="47.21088" lon="6.75156">
        <ele>948.4</ele>
      </trkpt>
      <trkpt lat="47.21098" lon="6.75179">
        <ele>949</ele>
      </trkpt>
      <trkpt lat="47.21112" lon="6.75219">
        <ele>949.6</ele>
      </trkpt>
      <trkpt lat="47.21124" lon="6.75234">
        <ele>950</ele>
      </trkpt>
      <trkpt lat="47.2115" lon="6.75265">
        <ele>950.8</ele>
      </trkpt>
      <trkpt lat="47.2119" lon="6.75314">
        <ele>952.2</ele>
      </trkpt>
      <trkpt lat="47.21201" lon="6.75331">
        <ele>952.6</ele>
      </trkpt>
      <trkpt lat="47.21201" lon="6.75348">
        <ele>952.6</ele>
      </trkpt>
      <trkpt lat="47.21221" lon="6.75379">
        <ele>951.6</ele>
      </trkpt>
      <trkpt lat="47.21239" lon="6.75416">
        <ele>950.4</ele>
      </trkpt>
      <trkpt lat="47.21256" lon="6.7543">
        <ele>947.6</ele>
      </trkpt>
      <trkpt lat="47.21289" lon="6.75477">
        <ele>946.4</ele>
      </trkpt>
      <trkpt lat="47.21296" lon="6.75488">
        <ele>946.2</ele>
      </trkpt>
      <trkpt lat="47.21301" lon="6.75516">
        <ele>945.6</ele>
      </trkpt>
      <trkpt lat="47.21302" lon="6.75523">
        <ele>945</ele>
      </trkpt>
      <trkpt lat="47.21313" lon="6.75541">
        <ele>942.6</ele>
      </trkpt>
      <trkpt lat="47.21333" lon="6.75568">
        <ele>940.8</ele>
      </trkpt>
      <trkpt lat="47.21343" lon="6.75571">
        <ele>941.2</ele>
      </trkpt>
      <trkpt lat="47.21354" lon="6.75587">
        <ele>943.4</ele>
      </trkpt>
      <trkpt lat="47.21361" lon="6.75627">
        <ele>943.6</ele>
      </trkpt>
      <trkpt lat="47.21363" lon="6.7564">
        <ele>942.8</ele>
      </trkpt>
      <trkpt lat="47.21374" lon="6.75682">
        <ele>941.8</ele>
      </trkpt>
      <trkpt lat="47.2141" lon="6.75763">
        <ele>936.8</ele>
      </trkpt>
      <trkpt lat="47.21423" lon="6.75827">
        <ele>933.9</ele>
      </trkpt>
      <trkpt lat="47.21455" lon="6.75902">
        <ele>927.1</ele>
      </trkpt>
      <trkpt lat="47.21493" lon="6.75987">
        <ele>925.2</ele>
      </trkpt>
      <trkpt lat="47.21532" lon="6.76047">
        <ele>923.6</ele>
      </trkpt>
      <trkpt lat="47.21578" lon="6.76089">
        <ele>929.3</ele>
      </trkpt>
      <trkpt lat="47.21607" lon="6.76084">
        <ele>926.6</ele>
      </trkpt>
      <trkpt lat="47.21623" lon="6.75973">
        <ele>920.7</ele>
      </trkpt>
      <trkpt lat="47.21624" lon="6.75838">
        <ele>914.3</ele>
      </trkpt>
      <trkpt lat="47.21623" lon="6.75757">
        <ele>899.8</ele>
      </trkpt>
      <trkpt lat="47.21632" lon="6.75678">
        <ele>893.6</ele>
      </trkpt>
      <trkpt lat="47.2165" lon="6.75629">
        <ele>893.2</ele>
      </trkpt>
      <trkpt lat="47.21691" lon="6.75617">
        <ele>895.6</ele>
      </trkpt>
      <trkpt lat="47.21734" lon="6.75639">
        <ele>898.2</ele>
      </trkpt>
      <trkpt lat="47.21747" lon="6.75696">
        <ele>902.4</ele>
      </trkpt>
      <trkpt lat="47.21762" lon="6.75843">
        <ele>898.2</ele>
      </trkpt>
      <trkpt lat="47.21772" lon="6.75977">
        <ele>896.2</ele>
      </trkpt>
      <trkpt lat="47.21802" lon="6.76124">
        <ele>897.5</ele>
      </trkpt>
      <trkpt lat="47.21836" lon="6.76211">
        <ele>889</ele>
      </trkpt>
      <trkpt lat="47.21851" lon="6.76258">
        <ele>887.6</ele>
      </trkpt>
      <trkpt lat="47.21846" lon="6.76297">
        <ele>885.7</ele>
      </trkpt>
      <trkpt lat="47.21872" lon="6.76264">
        <ele>883.6</ele>
      </trkpt>
      <trkpt lat="47.21916" lon="6.76174">
        <ele>879.1</ele>
      </trkpt>
      <trkpt lat="47.21919" lon="6.76063">
        <ele>874.2</ele>
      </trkpt>
      <trkpt lat="47.21909" lon="6.75961">
        <ele>872.7</ele>
      </trkpt>
      <trkpt lat="47.21927" lon="6.75903">
        <ele>866.8</ele>
      </trkpt>
      <trkpt lat="47.21966" lon="6.75823">
        <ele>863.7</ele>
      </trkpt>
      <trkpt lat="47.22033" lon="6.75801">
        <ele>862.8</ele>
      </trkpt>
      <trkpt lat="47.22066" lon="6.75792">
        <ele>862</ele>
      </trkpt>
      <trkpt lat="47.22099" lon="6.7579">
        <ele>861</ele>
      </trkpt>
      <trkpt lat="47.22182" lon="6.75795">
        <ele>862</ele>
      </trkpt>
      <trkpt lat="47.2221" lon="6.75781">
        <ele>861.8</ele>
      </trkpt>
      <trkpt lat="47.22296" lon="6.75707">
        <ele>857.6</ele>
      </trkpt>
      <trkpt lat="47.22381" lon="6.75602">
        <ele>862.5</ele>
      </trkpt>
      <trkpt lat="47.22413" lon="6.757">
        <ele>860.2</ele>
      </trkpt>
      <trkpt lat="47.22479" lon="6.7592">
        <ele>862</ele>
      </trkpt>
      <trkpt lat="47.2253" lon="6.76111">
        <ele>858.6</ele>
      </trkpt>
      <trkpt lat="47.22563" lon="6.76193">
        <ele>855.6</ele>
      </trkpt>
      <trkpt lat="47.22591" lon="6.7627">
        <ele>860.7</ele>
      </trkpt>
      <trkpt lat="47.22645" lon="6.76317">
        <ele>859.4</ele>
      </trkpt>
      <trkpt lat="47.22678" lon="6.76394">
        <ele>859.6</ele>
      </trkpt>
      <trkpt lat="47.2269" lon="6.76444">
        <ele>858.8</ele>
      </trkpt>
      <trkpt lat="47.22678" lon="6.76487">
        <ele>857.2</ele>
      </trkpt>
      <trkpt lat="47.22678" lon="6.76522">
        <ele>863</ele>
      </trkpt>
      <trkpt lat="47.22652" lon="6.76528">
        <ele>864</ele>
      </trkpt>
      <trkpt lat="47.22634" lon="6.76548">
        <ele>864.9</ele>
      </trkpt>
      <trkpt lat="47.22615" lon="6.76615">
        <ele>868.3</ele>
      </trkpt>
      <trkpt lat="47.226" lon="6.76712">
        <ele>873.9</ele>
      </trkpt>
      <trkpt lat="47.22637" lon="6.76683">
        <ele>857.6</ele>
      </trkpt>
      <trkpt lat="47.22671" lon="6.76698">
        <ele>857</ele>
      </trkpt>
      <trkpt lat="47.22687" lon="6.7672">
        <ele>869.8</ele>
      </trkpt>
      <trkpt lat="47.22688" lon="6.76807">
        <ele>851.4</ele>
      </trkpt>
      <trkpt lat="47.227" lon="6.769">
        <ele>849.6</ele>
      </trkpt>
      <trkpt lat="47.22716" lon="6.77029">
        <ele>842.8</ele>
      </trkpt>
      <trkpt lat="47.22722" lon="6.77073">
        <ele>841.6</ele>
      </trkpt>
      <trkpt lat="47.2273" lon="6.77117">
        <ele>839.2</ele>
      </trkpt>
      <trkpt lat="47.22739" lon="6.77173">
        <ele>836.6</ele>
      </trkpt>
      <trkpt lat="47.22752" lon="6.77275">
        <ele>834.6</ele>
      </trkpt>
      <trkpt lat="47.22762" lon="6.77371">
        <ele>831.4</ele>
      </trkpt>
      <trkpt lat="47.22765" lon="6.77453">
        <ele>830.2</ele>
      </trkpt>
      <trkpt lat="47.22773" lon="6.77447">
        <ele>829.8</ele>
      </trkpt>
      <trkpt lat="47.22809" lon="6.77415">
        <ele>828.6</ele>
      </trkpt>
      <trkpt lat="47.22822" lon="6.77402">
        <ele>828.2</ele>
      </trkpt>
      <trkpt lat="47.22834" lon="6.77389">
        <ele>836.8</ele>
      </trkpt>
      <trkpt lat="47.22855" lon="6.77396">
        <ele>836.8</ele>
      </trkpt>
      <trkpt lat="47.22882" lon="6.77412">
        <ele>836.8</ele>
      </trkpt>
      <trkpt lat="47.22916" lon="6.77468">
        <ele>833.1</ele>
      </trkpt>
      <trkpt lat="47.2294" lon="6.7753">
        <ele>832.3</ele>
      </trkpt>
      <trkpt lat="47.22968" lon="6.77575">
        <ele>832.1</ele>
      </trkpt>
      <trkpt lat="47.22992" lon="6.77606">
        <ele>823.2</ele>
      </trkpt>
      <trkpt lat="47.23027" lon="6.77634">
        <ele>823.2</ele>
      </trkpt>
      <trkpt lat="47.23057" lon="6.77667">
        <ele>823.4</ele>
      </trkpt>
      <trkpt lat="47.23075" lon="6.77683">
        <ele>834.4</ele>
      </trkpt>
      <trkpt lat="47.23096" lon="6.77701">
        <ele>835.3</ele>
      </trkpt>
      <trkpt lat="47.23116" lon="6.7769">
        <ele>835</ele>
      </trkpt>
      <trkpt lat="47.23136" lon="6.77698">
        <ele>835</ele>
      </trkpt>
      <trkpt lat="47.23145" lon="6.77645">
        <ele>836.5</ele>
      </trkpt>
      <trkpt lat="47.23161" lon="6.77622">
        <ele>837.1</ele>
      </trkpt>
      <trkpt lat="47.23188" lon="6.77682">
        <ele>835.8</ele>
      </trkpt>
      <trkpt lat="47.23216" lon="6.77751">
        <ele>822.2</ele>
      </trkpt>
      <trkpt lat="47.23229" lon="6.77748">
        <ele>821.8</ele>
      </trkpt>
      <trkpt lat="47.23256" lon="6.77724">
        <ele>823.8</ele>
      </trkpt>
      <trkpt lat="47.23285" lon="6.77716">
        <ele>826.4</ele>
      </trkpt>
      <trkpt lat="47.23304" lon="6.77695">
        <ele>830</ele>
      </trkpt>
      <trkpt lat="47.23324" lon="6.77689">
        <ele>831.4</ele>
      </trkpt>
      <trkpt lat="47.23344" lon="6.77669">
        <ele>835.6</ele>
      </trkpt>
      <trkpt lat="47.23351" lon="6.77639">
        <ele>839.8</ele>
      </trkpt>
      <trkpt lat="47.23354" lon="6.77625">
        <ele>841.2</ele>
      </trkpt>
      <trkpt lat="47.23369" lon="6.77614">
        <ele>843.8</ele>
      </trkpt>
      <trkpt lat="47.23398" lon="6.77642">
        <ele>843.6</ele>
      </trkpt>
      <trkpt lat="47.23413" lon="6.77652">
        <ele>840.4</ele>
      </trkpt>
      <trkpt lat="47.23431" lon="6.77669">
        <ele>839.2</ele>
      </trkpt>
      <trkpt lat="47.23461" lon="6.7771">
        <ele>839.2</ele>
      </trkpt>
      <trkpt lat="47.2348" lon="6.77747">
        <ele>838.8</ele>
      </trkpt>
      <trkpt lat="47.23506" lon="6.77809">
        <ele>836.8</ele>
      </trkpt>
      <trkpt lat="47.23525" lon="6.77859">
        <ele>833.2</ele>
      </trkpt>
      <trkpt lat="47.23553" lon="6.77908">
        <ele>832.8</ele>
      </trkpt>
      <trkpt lat="47.23574" lon="6.77949">
        <ele>827.6</ele>
      </trkpt>
      <trkpt lat="47.23608" lon="6.77989">
        <ele>830.6</ele>
      </trkpt>
      <trkpt lat="47.23649" lon="6.78044">
        <ele>832.8</ele>
      </trkpt>
      <trkpt lat="47.23671" lon="6.78072">
        <ele>833.4</ele>
      </trkpt>
      <trkpt lat="47.23724" lon="6.78137">
        <ele>836.8</ele>
      </trkpt>
      <trkpt lat="47.23763" lon="6.78168">
        <ele>837.2</ele>
      </trkpt>
      <trkpt lat="47.23783" lon="6.78179">
        <ele>837</ele>
      </trkpt>
      <trkpt lat="47.23834" lon="6.78234">
        <ele>835.2</ele>
      </trkpt>
      <trkpt lat="47.23848" lon="6.78271">
        <ele>834</ele>
      </trkpt>
      <trkpt lat="47.23872" lon="6.78342">
        <ele>832.2</ele>
      </trkpt>
      <trkpt lat="47.23894" lon="6.78355">
        <ele>825.2</ele>
      </trkpt>
      <trkpt lat="47.23983" lon="6.78396">
        <ele>829</ele>
      </trkpt>
      <trkpt lat="47.24011" lon="6.78407">
        <ele>833.4</ele>
      </trkpt>
      <trkpt lat="47.24039" lon="6.7842">
        <ele>836.2</ele>
      </trkpt>
      <trkpt lat="47.24066" lon="6.78447">
        <ele>837.8</ele>
      </trkpt>
      <trkpt lat="47.24113" lon="6.78492">
        <ele>836</ele>
      </trkpt>
      <trkpt lat="47.24122" lon="6.785">
        <ele>836.2</ele>
      </trkpt>
      <trkpt lat="47.24145" lon="6.78515">
        <ele>836</ele>
      </trkpt>
      <trkpt lat="47.24151" lon="6.78518">
        <ele>835.8</ele>
      </trkpt>
      <trkpt lat="47.24163" lon="6.78528">
        <ele>835</ele>
      </trkpt>
      <trkpt lat="47.24175" lon="6.78545">
        <ele>834.2</ele>
      </trkpt>
      <trkpt lat="47.24183" lon="6.78566">
        <ele>830.8</ele>
      </trkpt>
      <trkpt lat="47.24181" lon="6.78604">
        <ele>824.2</ele>
      </trkpt>
      <trkpt lat="47.2419" lon="6.7863">
        <ele>823</ele>
      </trkpt>
      <trkpt lat="47.24245" lon="6.78681">
        <ele>822.8</ele>
      </trkpt>
      <trkpt lat="47.24287" lon="6.78718">
        <ele>824.2</ele>
      </trkpt>
      <trkpt lat="47.24366" lon="6.78751">
        <ele>825.6</ele>
      </trkpt>
      <trkpt lat="47.24398" lon="6.78759">
        <ele>825.8</ele>
      </trkpt>
      <trkpt lat="47.24422" lon="6.78784">
        <ele>826</ele>
      </trkpt>
      <trkpt lat="47.24432" lon="6.78808">
        <ele>826</ele>
      </trkpt>
      <trkpt lat="47.24443" lon="6.78834">
        <ele>825.8</ele>
      </trkpt>
      <trkpt lat="47.24465" lon="6.78882">
        <ele>825.2</ele>
      </trkpt>
      <trkpt lat="47.24409" lon="6.79095">
        <ele>820</ele>
      </trkpt>
      <trkpt lat="47.24409" lon="6.79095">
        <ele>820.4</ele>
      </trkpt>
      <trkpt lat="47.24409" lon="6.79095">
        <ele>820.6</ele>
      </trkpt>
      <trkpt lat="47.24409" lon="6.79095">
        <ele>820.6</ele>
      </trkpt>
      <trkpt lat="47.24409" lon="6.79095">
        <ele>820.6</ele>
      </trkpt>
      <trkpt lat="47.24409" lon="6.79095">
        <ele>820.6</ele>
      </trkpt>
      <trkpt lat="47.24409" lon="6.79096">
        <ele>820.4</ele>
      </trkpt>
      <trkpt lat="47.24409" lon="6.79096">
        <ele>820.6</ele>
      </trkpt>
      <trkpt lat="47.24409" lon="6.79096">
        <ele>820.4</ele>
      </trkpt>
      <trkpt lat="47.24409" lon="6.79096">
        <ele>820.4</ele>
      </trkpt>
      <trkpt lat="47.24409" lon="6.79096">
        <ele>820.4</ele>
      </trkpt>
      <trkpt lat="47.24409" lon="6.79095">
        <ele>820.6</ele>
      </trkpt>
      <trkpt lat="47.24409" lon="6.79093">
        <ele>820.4</ele>
      </trkpt>
    </trkseg>
  </trk>
</gpx>